PORTS® Data Listing: 8454049 Quonset Point, RI

CO-OPS RAW PORTS DATA

************************      PRELIMINARY DATA      ************************** 

     THIS RAW DATA HAS NOT BEEN SUBJECT TO THE NATIONAL OCEAN SERVICE'S        
     QUALITY CONTROL OR QUALITY ASSURANCE PROCEDURES AND DOES NOT MEET         
     THE CRITERIA AND STANDARDS OF OFFICIAL NATIONAL OCEAN SERVICE             
     DATA.  IT IS RELEASED FOR LIMITED PUBLIC USE AS PRELIMINARY DATA TO       
     BE USED ONLY WITH APPROPRIATE CAUTION.                                    

************************      PRELIMINARY DATA      ************************** 


       CD   -   Calendar date
       T    -   Time
       TZ   -   Timezone
       PW   -   Predicted water level (feet above MLLW)
       OW   -   Observed water level (feet above MLLW)
       WS   -   Wind speed (knots)
       WD   -   Wind direction (degrees true)
       WG   -   Wind gust (knots)
       AT   -   Air temperature (degrees farenheit)
       WT   -   Water temperature (degrees farenheit)
       AP   -   Air pressure (millibars)
       SA   -   Salinty (PSU - Practical Salinity Units)
       SG   -   Specific gravity
       RH   -   Relative humidity
       AG   -   Air gap (feet)
       VI   -   Visibility (nautical miles)

       ** NOTE **
       A variable that has its data fields filled with "9"s, indicates that
       data was not collected for that sample period.
       **********


STATION NAME: Quonset Point (8454049)
****************************************************************************************************
    CD       T    TZ    PW     OW    WS   WD   WG    AT    WT    AP    SA    SG     RH    AG   VI
****************************************************************************************************
2019/11/16 13:24 EST    1.51   1.39   17   24   22  36.5  47.5 1030.9 27.6  1.022 -99.9 -99.99 -9.99
2019/11/16 13:30 EST    1.41   1.32   19   12   23  36.3  47.5 1030.8 27.6  1.022 -99.9 -99.99 -9.99
2019/11/16 13:36 EST    1.31   1.26   20   21   24  36.3  47.3 1030.8 27.6  1.022 -99.9 -99.99 -9.99
2019/11/16 13:42 EST    1.21   1.18   19   15   22  36.5  47.3 1030.9 27.6  1.022 -99.9 -99.99 -9.99
2019/11/16 13:48 EST    1.12   1.05   19   22   21  36.3  47.3 1030.9 27.6  1.022 -99.9 -99.99 -9.99
2019/11/16 13:54 EST    1.03   0.92   16   15   20  36.3  46.9 1030.9 27.5  1.022 -99.9 -99.99 -9.99
2019/11/16 14:00 EST    0.94   0.84   16   19   19  36.3  47.1 1030.7 27.5  1.022 -99.9 -99.99 -9.99
2019/11/16 14:06 EST    0.86   0.76   17   25   21  36.5  46.9 1030.8 27.6  1.022 -99.9 -99.99 -9.99
2019/11/16 14:12 EST    0.78   0.73   17   29   23  36.5  46.9 1030.9 27.5  1.022 -99.9 -99.99 -9.99
2019/11/16 14:18 EST    0.71   0.74   19   31   22  36.9  47.1 1030.7 27.4  1.022 -99.9 -99.99 -9.99
2019/11/16 14:24 EST    0.64   0.59   19   27   22  36.7  47.1 1030.7 27.5  1.022 -99.9 -99.99 -9.99
2019/11/16 14:30 EST    0.57   0.46   19   28   23  36.7  47.3 1030.6 27.5  1.022 -99.9 -99.99 -9.99
2019/11/16 14:36 EST    0.51   0.46   19   31   22  36.7  47.1 1030.6 27.5  1.022 -99.9 -99.99 -9.99
2019/11/16 14:42 EST    0.45   0.45   17   33   21  36.9  46.9 1030.5 27.5  1.022 -99.9 -99.99 -9.99
2019/11/16 14:48 EST    0.40   0.39   17   29   21  36.9  46.9 1030.5 27.4  1.022 -99.9 -99.99 -9.99
2019/11/16 14:54 EST    0.36   0.35   16   31   21  37.0  47.1 1030.5 27.3  1.022 -99.9 -99.99 -9.99
2019/11/16 15:00 EST    0.32   0.39   18   36   22  36.9  46.9 1030.5 27.4  1.022 -99.9 -99.99 -9.99
2019/11/16 15:06 EST    0.28   0.36   18   35   20  36.7  46.9 1030.5 27.4  1.022 -99.9 -99.99 -9.99
2019/11/16 15:12 EST    0.25   0.34   16   39   22  37.0  46.9 1030.7 27.4  1.022 -99.9 -99.99 -9.99
2019/11/16 15:18 EST    0.23   0.33   15   38   18  37.0  46.9 1031.0 27.3  1.022 -99.9 -99.99 -9.99
2019/11/16 15:24 EST    0.20   0.39   16   47   18  37.2  46.9 1031.0 27.3  1.022 -99.9 -99.99 -9.99
2019/11/16 15:30 EST    0.19   0.46   15   36   21  36.9  46.8 1031.0 27.5  1.022 -99.9 -99.99 -9.99
2019/11/16 15:36 EST    0.18   0.41   15   42   17  37.0  46.9 1031.0 27.5  1.022 -99.9 -99.99 -9.99
2019/11/16 15:42 EST    0.17   0.40   13   39   17  36.7  46.9 1031.3 27.4  1.022 -99.9 -99.99 -9.99
2019/11/16 15:48 EST    0.17   0.42   13   52   16  37.0  46.6 1031.5 27.5  1.022 -99.9 -99.99 -9.99
2019/11/16 15:54 EST    0.17   0.43   13   10   15  36.5  46.6 1031.5 27.5  1.022 -99.9 -99.99 -9.99
2019/11/16 16:00 EST    0.18   0.38   13    9   18  36.7  46.6 1031.6 27.5  1.022 -99.9 -99.99 -9.99
2019/11/16 16:06 EST    0.19   0.40   15    5   18  36.3  46.6 1031.5 27.6  1.022 -99.9 -99.99 -9.99
2019/11/16 16:12 EST    0.21   0.51   15   18   17  36.5  46.8 1031.5 27.5  1.022 -99.9 -99.99 -9.99
2019/11/16 16:18 EST    0.22   0.52   17   23   20  36.5  46.8 1031.4 27.5  1.022 -99.9 -99.99 -9.99
2019/11/16 16:24 EST    0.24   0.48   17   21   22  36.3  46.8 1031.5 27.5  1.022 -99.9 -99.99 -9.99
2019/11/16 16:30 EST    0.27   0.49   17   24   22  36.5  46.8 1031.5 27.5  1.022 -99.9 -99.99 -9.99
2019/11/16 16:36 EST    0.29   0.58   15   22   19  36.3  46.8 1031.6 27.5  1.022 -99.9 -99.99 -9.99
2019/11/16 16:42 EST    0.32   0.62   15   21   19  36.1  46.8 1031.8 27.5  1.022 -99.9 -99.99 -9.99
2019/11/16 16:48 EST    0.35   0.60   13   19   16  36.0  46.8 1031.8 27.5  1.022 -99.9 -99.99 -9.99
2019/11/16 16:54 EST    0.38   0.66   14   13   16  35.8  46.8 1031.8 27.5  1.022 -99.9 -99.99 -9.99
2019/11/16 17:00 EST    0.41   0.74   13   21   17  35.8  46.8 1031.8 27.4  1.022 -99.9 -99.99 -9.99
2019/11/16 17:06 EST    0.45   0.73   11    6   18  35.8  46.6 1031.7 27.5  1.022 -99.9 -99.99 -9.99
2019/11/16 17:12 EST    0.48   0.73   14   12   18  35.6  46.4 1031.6 27.5  1.022 -99.9 -99.99 -9.99
2019/11/16 17:18 EST    0.52   0.76   12   13   16  35.4  46.6 1031.6 27.4  1.022 -99.9 -99.99 -9.99
2019/11/16 17:24 EST    0.55   0.80   14   23   18  36.0  46.6 1031.6 27.4  1.022 -99.9 -99.99 -9.99
2019/11/16 17:30 EST    0.59   0.80   14   21   16  36.0  46.6 1031.7 27.4  1.022 -99.9 -99.99 -9.99
2019/11/16 17:36 EST    0.63   0.80   14   26   16  36.1  46.6 1031.9 27.3  1.022 -99.9 -99.99 -9.99
2019/11/16 17:42 EST    0.67   0.89   15   34   18  35.8  46.6 1031.9 27.3  1.022 -99.9 -99.99 -9.99
2019/11/16 17:48 EST    0.71   0.97   13   21   17  35.6  46.6 1032.0 27.3  1.022 -99.9 -99.99 -9.99
2019/11/16 17:54 EST    0.75   0.99   14   31   17  35.6  46.4 1032.3 27.3  1.022 -99.9 -99.99 -9.99
2019/11/16 18:00 EST    0.78   1.02   15   31   16  35.6  46.4 1032.4 27.3  1.022 -99.9 -99.99 -9.99
2019/11/16 18:06 EST    0.82   1.13   12   24   15  35.8  46.4 1032.4 27.3  1.022 -99.9 -99.99 -9.99
2019/11/16 18:12 EST    0.86   1.21   14   26   17  35.4  46.4 1032.4 27.2  1.022 -99.9 -99.99 -9.99
2019/11/16 18:18 EST    0.91   1.25   14   23   18  35.2  46.4 1032.4 27.2  1.022 -99.9 -99.99 -9.99
2019/11/16 18:24 EST    0.95   1.32   13   22   17  35.4  46.4 1032.4 27.2  1.022 -99.9 -99.99 -9.99
2019/11/16 18:30 EST    0.99   1.39   13    7   17  34.5  46.4 1032.4 27.2  1.022 -99.9 -99.99 -9.99
2019/11/16 18:36 EST    1.03   1.40   11   13   15  34.7  46.4 1032.4 27.2  1.022 -99.9 -99.99 -9.99
2019/11/16 18:42 EST    1.08   1.39   13   13   18  34.7  46.4 1032.5 27.2  1.022 -99.9 -99.99 -9.99
2019/11/16 18:48 EST    1.13   1.44   12   14   18  34.5  46.2 1032.6 27.3  1.022 -99.9 -99.99 -9.99
2019/11/16 18:54 EST    1.17   1.51   12    3   15  34.0  46.4 1032.6 27.2  1.022 -99.9 -99.99 -9.99
2019/11/16 19:00 EST    1.22   1.56   12    6   15  33.8  46.4 1032.7 27.2  1.022 -99.9 -99.99 -9.99
2019/11/16 19:06 EST    1.28   1.58   12    4   15  33.8  46.4 1032.6 27.2  1.022 -99.9 -99.99 -9.99
2019/11/16 19:12 EST    1.33   1.65   13    3   15  33.6  46.2 1032.6 27.3  1.022 -99.9 -99.99 -9.99
2019/11/16 19:18 EST    1.39   1.76   13    7   16  33.4  46.2 1032.6 27.2  1.022 -99.9 -99.99 -9.99
2019/11/16 19:24 EST    1.44   1.81   13    2   16  33.3  46.2 1032.7 27.2  1.022 -99.9 -99.99 -9.99
2019/11/16 19:30 EST    1.50   1.90   13    8   18  33.1  46.2 1032.7 27.2  1.022 -99.9 -99.99 -9.99
2019/11/16 19:36 EST    1.57   2.00   13    6   17  33.1  46.2 1032.8 27.2  1.022 -99.9 -99.99 -9.99
2019/11/16 19:42 EST    1.63   2.14   13    4   17  32.9  46.0 1032.9 27.3  1.022 -99.9 -99.99 -9.99
2019/11/16 19:48 EST    1.70   2.18   12    1   16  32.7  46.4 1032.9 27.2  1.022 -99.9 -99.99 -9.99
2019/11/16 19:54 EST    1.77   2.21   12    2   16  32.4  46.6 1032.9 27.2  1.022 -99.9 -99.99 -9.99
2019/11/16 20:00 EST    1.84   2.29   13    2   17  32.4  46.6 1032.8 27.3  1.022 -99.9 -99.99 -9.99
2019/11/16 20:06 EST    1.91   2.38   14    0   18  32.2  46.9 1032.7 27.3  1.022 -99.9 -99.99 -9.99
2019/11/16 20:12 EST    1.99   2.45   15    3   18  32.2  46.8 1032.7 27.5  1.022 -99.9 -99.99 -9.99
2019/11/16 20:18 EST    2.06   2.52   11  358   18  32.0  46.8 1032.8 27.4  1.022 -99.9 -99.99 -9.99
2019/11/16 20:24 EST    2.14   2.64   10  347   15  31.5  46.9 1032.7 27.4  1.022 -99.9 -99.99 -9.99
2019/11/16 20:30 EST    2.22   2.72   11  353   14  31.5  46.8 1032.8 27.5  1.022 -99.9 -99.99 -9.99
2019/11/16 20:36 EST    2.30   2.79   11  347   15  31.3  46.8 1032.9 27.4  1.022 -99.9 -99.99 -9.99
2019/11/16 20:42 EST    2.38   2.88    7  342   11  30.7  46.6 1032.9 27.5  1.022 -99.9 -99.99 -9.99
2019/11/16 20:48 EST    2.46   2.98    9  343   12  30.7  46.4 1032.8 27.4  1.022 -99.9 -99.99 -9.99
2019/11/16 20:54 EST    2.54   3.08   11  344   13  30.6  46.2 1032.8 27.4  1.022 -99.9 -99.99 -9.99
2019/11/16 21:00 EST    2.62   3.12    9  348   12  30.6  46.0 1032.7 27.4  1.022 -99.9 -99.99 -9.99
2019/11/16 21:06 EST    2.70   3.19   14  354   16  30.7  46.0 1032.4 27.4  1.022 -99.9 -99.99 -9.99
2019/11/16 21:12 EST    2.77   3.28   12  355   16  30.6  46.0 1032.5 27.3  1.022 -99.9 -99.99 -9.99
2019/11/16 21:18 EST    2.85   3.28   13  352   17  30.4  46.0 1032.3 27.3  1.022 -99.9 -99.99 -9.99
2019/11/16 21:24 EST    2.92   3.33   12  355   17  30.6  45.9 1032.2 27.3  1.022 -99.9 -99.99 -9.99
2019/11/16 21:30 EST    2.99   3.41   13  346   16  30.2  45.9 1032.4 27.3  1.022 -99.9 -99.99 -9.99
2019/11/16 21:36 EST    3.05   3.49   13  345   16  30.2  46.0 1032.3 27.2  1.022 -99.9 -99.99 -9.99
2019/11/16 21:42 EST    3.11   3.52   11  347   13  30.0  46.0 1032.4 27.3  1.022 -99.9 -99.99 -9.99
2019/11/16 21:48 EST    3.17   3.57   11  348   15  30.0  46.0 1032.4 27.3  1.022 -99.9 -99.99 -9.99
2019/11/16 21:54 EST    3.22   3.64   12  350   15  30.0  46.2 1032.3 27.2  1.022 -99.9 -99.99 -9.99
2019/11/16 22:00 EST    3.27   3.66   11  355   16  30.0  46.0 1032.3 27.3  1.022 -99.9 -99.99 -9.99
2019/11/16 22:06 EST    3.31   3.70   11  350   14  29.7  46.2 1032.5 27.3  1.022 -99.9 -99.99 -9.99
2019/11/16 22:12 EST    3.35   3.75   11  346   14  29.7  46.2 1032.5 27.3  1.022 -99.9 -99.99 -9.99
2019/11/16 22:18 EST    3.38   3.73   11  350   14  29.7  46.4 1032.6 27.3  1.022 -99.9 -99.99 -9.99
2019/11/16 22:24 EST    3.40   3.70    9  345   12  29.5  46.4 1032.4 27.3  1.022 -99.9 -99.99 -9.99
2019/11/16 22:30 EST    3.42   3.66   11  348   14  29.3  46.4 1032.2 27.4  1.022 -99.9 -99.99 -9.99
2019/11/16 22:36 EST    3.43   3.68   12  353   15  29.5  46.4 1032.0 27.4  1.022 -99.9 -99.99 -9.99
2019/11/16 22:42 EST    3.43   3.67   13  354   16  29.5  46.4 1032.0 27.4  1.022 -99.9 -99.99 -9.99
2019/11/16 22:48 EST    3.43   3.62   12  353   14  29.3  46.6 1032.2 27.4  1.022 -99.9 -99.99 -9.99
2019/11/16 22:54 EST    3.42   3.60   10  351   14  29.5  46.4 1032.2 27.5  1.022 -99.9 -99.99 -9.99
2019/11/16 23:00 EST    3.40   3.58   11  354   14  29.5  46.6 1032.1 27.4  1.022 -99.9 -99.99 -9.99
2019/11/16 23:06 EST    3.38   3.56   11  358   14  29.7  46.6 1032.1 27.5  1.022 -99.9 -99.99 -9.99
2019/11/16 23:12 EST    3.35   3.54   10  357   15  29.7  46.6 1032.0 27.4  1.022 -99.9 -99.99 -9.99
2019/11/16 23:18 EST    3.31   3.53   15    6   18  30.2  46.4 1031.9 27.5  1.022 -99.9 -99.99 -9.99
2019/11/16 23:24 EST    3.27   3.50   13    2   18  30.6  46.2 1031.8 27.5  1.022 -99.9 -99.99 -9.99
2019/11/16 23:30 EST    3.22   3.44   14    6   18  30.4  46.2 1031.7 27.5  1.022 -99.9 -99.99 -9.99
2019/11/16 23:36 EST    3.17   3.39   15    5   18  30.4  46.4 1031.6 27.4  1.022 -99.9 -99.99 -9.99
2019/11/16 23:42 EST    3.10   3.33   17    8   21  30.4  46.2 1031.5 27.5  1.022 -99.9 -99.99 -9.99
2019/11/16 23:48 EST    3.04   3.25   17   15   22  30.6  46.4 1031.5 27.4  1.022 -99.9 -99.99 -9.99
2019/11/16 23:54 EST    2.96   3.15   17    9   20  30.0  46.4 1031.4 27.5  1.022 -99.9 -99.99 -9.99
2019/11/17 00:00 EST    2.89   3.06   17   13   20  30.4  46.4 1031.4 27.4  1.022 -99.9 -99.99 -9.99
2019/11/17 00:06 EST    2.80   3.00   17   14   20  30.2  46.4 1031.5 27.4  1.022 -99.9 -99.99 -9.99
2019/11/17 00:12 EST    2.72   2.91   17    8   20  29.8  46.6 1031.4 27.4  1.022 -99.9 -99.99 -9.99
2019/11/17 00:18 EST    2.63   2.82   16   13   19  30.0  46.4 1031.6 27.4  1.022 -99.9 -99.99 -9.99
2019/11/17 00:24 EST    2.53   2.76   15    9   18  30.0  46.2 1031.6 27.4  1.022 -99.9 -99.99 -9.99
2019/11/17 00:30 EST    2.43   2.70   15   10   18  29.7  46.0 1031.7 27.4  1.022 -99.9 -99.99 -9.99
2019/11/17 00:36 EST    2.33   2.59   16    7   17  29.7  45.7 1031.6 27.4  1.022 -99.9 -99.99 -9.99
2019/11/17 00:42 EST    2.23   2.51   16   11   19  29.8  45.7 1031.6 27.3  1.022 -99.9 -99.99 -9.99
2019/11/17 00:48 EST    2.13   2.45   16   12   17  29.8  45.9 1031.5 27.3  1.022 -99.9 -99.99 -9.99
2019/11/17 00:54 EST    2.02   2.40   14    8   17  29.7  46.2 1031.4 27.3  1.022 -99.9 -99.99 -9.99
2019/11/17 01:00 EST    1.91   2.30   14    6   18  29.5  46.4 1031.3 27.3  1.022 -99.9 -99.99 -9.99
2019/11/17 01:06 EST    1.80   2.18   14    5   18  29.5  46.4 1031.2 27.4  1.022 -99.9 -99.99 -9.99
2019/11/17 01:12 EST    1.70   2.08   15    8   19  29.7  46.4 1031.2 27.4  1.022 -99.9 -99.99 -9.99
2019/11/17 01:18 EST    1.59   2.01   13    6   17  29.3  46.6 1031.1 27.4  1.022 -99.9 -99.99 -9.99
2019/11/17 01:24 EST    1.48   1.92   14    3   19  29.5  46.0 1030.9 27.5  1.022 -99.9 -99.99 -9.99
2019/11/17 01:30 EST    1.37   1.78   13    4   17  29.5  46.2 1030.9 27.4  1.022 -99.9 -99.99 -9.99
2019/11/17 01:36 EST    1.27   1.68   14    8   18  29.5  46.2 1031.0 27.4  1.022 -99.9 -99.99 -9.99
2019/11/17 01:42 EST    1.17   1.57   15   14   17  29.8  46.2 1031.1 27.4  1.022 -99.9 -99.99 -9.99
2019/11/17 01:48 EST    1.07   1.47   14    8   18  29.5  46.0 1031.2 27.4  1.022 -99.9 -99.99 -9.99
2019/11/17 01:54 EST    0.97   1.41   13   12   18  29.8  45.9 1031.1 27.3  1.022 -99.9 -99.99 -9.99
2019/11/17 02:00 EST    0.87   1.36   13    5   17  29.7  45.9 1030.9 27.4  1.022 -99.9 -99.99 -9.99
2019/11/17 02:06 EST    0.78   1.31   11  354   17  28.8  46.0 1031.0 27.3  1.022 -99.9 -99.99 -9.99
2019/11/17 02:12 EST    0.69   1.24   11   11   17  29.3  46.2 1030.8 27.2  1.022 -99.9 -99.99 -9.99
2019/11/17 02:18 EST    0.61   1.20   13    6   17  29.3  46.6 1030.6 27.3  1.022 -99.9 -99.99 -9.99
2019/11/17 02:24 EST    0.53   1.14   14    9   19  29.5  46.4 1030.6 27.4  1.022 -99.9 -99.99 -9.99
2019/11/17 02:30 EST    0.46   1.08   15    8   20  29.7  46.8 1030.4 27.4  1.022 -99.9 -99.99 -9.99
2019/11/17 02:36 EST    0.39   1.02   13    5   18  29.5  46.4 1030.5 27.5  1.022 -99.9 -99.99 -9.99
2019/11/17 02:42 EST    0.32   0.97   13    5   17  29.7  46.4 1030.5 27.4  1.022 -99.9 -99.99 -9.99
2019/11/17 02:48 EST    0.26   0.90   13   10   17  29.8  46.2 1030.6 27.4  1.022 -99.9 -99.99 -9.99
2019/11/17 02:54 EST    0.21   0.84   14    7   17  29.8  46.0 1030.5 27.5  1.022 -99.9 -99.99 -9.99
2019/11/17 03:00 EST    0.17   0.77   12  358   18  29.1  46.0 1030.3 27.4  1.022 -99.9 -99.99 -9.99
2019/11/17 03:06 EST    0.13   0.70   14    7   18  29.7  46.0 1030.2 27.4  1.022 -99.9 -99.99 -9.99
2019/11/17 03:12 EST    0.09   0.67    9  358   17  29.5  46.0 1030.2 27.4  1.022 -99.9 -99.99 -9.99
2019/11/17 03:18 EST    0.06   0.65    9  349   17  28.6  45.9 1030.2 27.5  1.022 -99.9 -99.99 -9.99
2019/11/17 03:24 EST    0.04   0.62   10  355   16  28.4  45.9 1030.0 27.5  1.022 -99.9 -99.99 -9.99
2019/11/17 03:30 EST    0.03   0.61   11  349   13  28.4  45.9 1030.0 27.5  1.022 -99.9 -99.99 -9.99
2019/11/17 03:36 EST    0.02   0.62   10  352   14  28.6  45.5 1030.2 27.5  1.022 -99.9 -99.99 -9.99
2019/11/17 03:42 EST    0.01   0.63   11  350   13  28.8  45.5 1030.2 27.4  1.022 -99.9 -99.99 -9.99
2019/11/17 03:48 EST    0.01   0.63   10  348   16  28.6  45.5 1030.4 27.4  1.022 -99.9 -99.99 -9.99
2019/11/17 03:54 EST    0.02   0.63   11  352   13  28.8  45.3 1030.5 27.4  1.022 -99.9 -99.99 -9.99
2019/11/17 04:00 EST    0.04   0.59   11  349   13  28.6  45.3 1030.4 27.4  1.022 -99.9 -99.99 -9.99
2019/11/17 04:06 EST    0.06   0.59   11  354   14  28.6  45.1 1030.4 27.5  1.022 -99.9 -99.99 -9.99
2019/11/17 04:12 EST    0.08   0.60   11  353   14  28.4  45.1 1030.4 27.4  1.022 -99.9 -99.99 -9.99
2019/11/17 04:18 EST    0.11   0.62   10  352   14  28.4  45.3 1030.4 27.4  1.022 -99.9 -99.99 -9.99
2019/11/17 04:24 EST    0.15   0.63   10  355   15  28.6  45.5 1030.5 27.4  1.022 -99.9 -99.99 -9.99
2019/11/17 04:30 EST    0.19   0.64   11  356   13  28.9  45.3 1030.5 27.5  1.022 -99.9 -99.99 -9.99
2019/11/17 04:36 EST    0.23   0.66   12  356   16  29.1  45.5 1030.5 27.4  1.022 -99.9 -99.99 -9.99
2019/11/17 04:42 EST    0.27   0.68   11  358   15  29.1  45.5 1030.4 27.4  1.022 -99.9 -99.99 -9.99
2019/11/17 04:48 EST    0.32   0.72   13  359   18  29.1  45.5 1030.2 27.4  1.022 -99.9 -99.99 -9.99
2019/11/17 04:54 EST    0.38   0.77   14    1   18  29.5  45.3 1030.0 27.4  1.022 -99.9 -99.99 -9.99
2019/11/17 05:00 EST    0.43   0.82   16    2   19  29.5  45.7 1029.9 27.4  1.022 -99.9 -99.99 -9.99
2019/11/17 05:06 EST    0.49   0.84   17    4   19  29.5  45.5 1029.9 27.4  1.022 -99.9 -99.99 -9.99
2019/11/17 05:12 EST    0.55   0.87   16    6   18  29.8  45.7 1029.8 27.4  1.022 -99.9 -99.99 -9.99
2019/11/17 05:18 EST    0.61   0.92   16    7   18  30.2  45.7 1029.8 27.4  1.022 -99.9 -99.99 -9.99
2019/11/17 05:24 EST    0.67   0.95   17   12   19  30.6  45.5 1029.7 27.4  1.022 -99.9 -99.99 -9.99
2019/11/17 05:30 EST    0.73   0.97   16    7   18  30.2  45.5 1029.7 27.4  1.022 -99.9 -99.99 -9.99
2019/11/17 05:36 EST    0.80   1.00   16    8   19  29.8  45.3 1029.7 27.4  1.022 -99.9 -99.99 -9.99
2019/11/17 05:42 EST    0.86   1.05   15    6   21  29.8  45.5 1029.5 27.4  1.022 -99.9 -99.99 -9.99
2019/11/17 05:48 EST    0.92   1.10   16    7   20  29.8  45.5 1029.5 27.4  1.022 -99.9 -99.99 -9.99
2019/11/17 05:54 EST    0.99   1.14   16    8   20  30.0  45.5 1029.4 27.4  1.022 -99.9 -99.99 -9.99
2019/11/17 06:00 EST    1.05   1.20   16    7   19  30.0  45.3 1029.4 27.4  1.022 -99.9 -99.99 -9.99
2019/11/17 06:06 EST    1.11   1.28   17    5   19  29.8  45.3 1029.4 27.4  1.022 -99.9 -99.99 -9.99
2019/11/17 06:12 EST    1.18   1.34   14    8   18  30.0  45.3 1029.5 27.4  1.022 -99.9 -99.99 -9.99
2019/11/17 06:18 EST    1.24   1.42   11  358   18  29.5  45.3 1029.5 27.4  1.022 -99.9 -99.99 -9.99
2019/11/17 06:24 EST    1.30   1.48   12    5   15  29.8  45.1 1029.5 27.4  1.022 -99.9 -99.99 -9.99
2019/11/17 06:30 EST    1.36   1.58   11    3   16  29.7  45.1 1029.5 27.4  1.022 -99.9 -99.99 -9.99
2019/11/17 06:36 EST    1.42   1.64   15   10   17  30.2  45.0 1029.6 27.5  1.022 -99.9 -99.99 -9.99
2019/11/17 06:42 EST    1.48   1.70   14    5   16  30.0  45.1 1029.6 27.4  1.022 -99.9 -99.99 -9.99
2019/11/17 06:48 EST    1.54   1.80   15    7   17  30.6  45.0 1029.6 27.5  1.022 -99.9 -99.99 -9.99
2019/11/17 06:54 EST    1.60   1.91   16   15   17  30.6  45.1 1029.7 27.4  1.022 -99.9 -99.99 -9.99
2019/11/17 07:00 EST    1.66   1.90   16   10   18  30.6  45.1 1029.9 27.4  1.022 -99.9 -99.99 -9.99
2019/11/17 07:06 EST    1.71   1.98   14   10   18  30.6  45.1 1029.9 27.4  1.022 -99.9 -99.99 -9.99
2019/11/17 07:12 EST    1.77   2.08   14   14   18  30.7  45.0 1029.9 27.5  1.022 -99.9 -99.99 -9.99
2019/11/17 07:18 EST    1.83   2.17   16   20   18  31.1  45.1 1030.0 27.4  1.022 -99.9 -99.99 -9.99
2019/11/17 07:24 EST    1.89   2.23   15   12   17  30.6  45.1 1029.9 27.4  1.022 -99.9 -99.99 -9.99
2019/11/17 07:30 EST    1.95   2.34   13   11   19  31.1  45.0 1029.9 27.5  1.022 -99.9 -99.99 -9.99
2019/11/17 07:36 EST    2.01   2.46   14    8   17  30.9  45.0 1029.9 27.4  1.022 -99.9 -99.99 -9.99
2019/11/17 07:42 EST    2.07   2.55   15    5   17  30.7  45.0 1030.0 27.4  1.022 -99.9 -99.99 -9.99
2019/11/17 07:48 EST    2.13   2.62   13    9   16  31.1  44.6 1030.0 27.5  1.022 -99.9 -99.99 -9.99
2019/11/17 07:54 EST    2.20   2.75   11  359   14  30.9  44.6 1029.9 27.4  1.022 -99.9 -99.99 -9.99
2019/11/17 08:00 EST    2.26   2.84   11  355   13  30.7  44.4 1030.0 27.5  1.022 -99.9 -99.99 -9.99
2019/11/17 08:06 EST    2.33   2.94   10  356   13  30.7  44.6 1030.0 27.4  1.022 -99.9 -99.99 -9.99
2019/11/17 08:12 EST    2.39   3.04   11  358   13  30.6  44.4 1030.1 27.5  1.022 -99.9 -99.99 -9.99
2019/11/17 08:18 EST    2.46   3.11   10  352   14  30.9  44.6 1030.2 27.4  1.022 -99.9 -99.99 -9.99
2019/11/17 08:24 EST    2.53   3.17   10  351   13  31.1  45.0 1030.2 27.4  1.022 -99.9 -99.99 -9.99
2019/11/17 08:30 EST    2.60   3.25   10  347   13  30.9  44.6 1030.2 27.4  1.022 -99.9 -99.99 -9.99
2019/11/17 08:36 EST    2.67   3.33   11  344   12  31.1  44.4 1030.1 27.4  1.022 -99.9 -99.99 -9.99
2019/11/17 08:42 EST    2.74   3.43   10  351   13  31.5  44.4 1030.1 27.5  1.022 -99.9 -99.99 -9.99
2019/11/17 08:48 EST    2.81   3.55   10  356   14  31.5  45.0 1030.1 27.4  1.022 -99.9 -99.99 -9.99
2019/11/17 08:54 EST    2.89   3.64   10  353   13  31.8  45.0 1030.2 27.4  1.022 -99.9 -99.99 -9.99
2019/11/17 09:00 EST    2.96   3.69   11  354   14  32.0  45.1 1030.2 27.4  1.022 -99.9 -99.99 -9.99
2019/11/17 09:06 EST    3.03   3.79   11    0   15  32.5  45.1 1030.3 27.4  1.022 -99.9 -99.99 -9.99
2019/11/17 09:12 EST    3.10   3.90   11  353   13  32.2  45.1 1030.2 27.4  1.022 -99.9 -99.99 -9.99
2019/11/17 09:18 EST    3.17   4.00   12  359   14  32.2  45.3 1030.2 27.4  1.022 -99.9 -99.99 -9.99
2019/11/17 09:24 EST    3.24   4.09   11  352   14  32.5  45.1 1030.1 27.4  1.022 -99.9 -99.99 -9.99
2019/11/17 09:30 EST    3.31   4.18   13  351   15  32.4  45.1 1029.9 27.4  1.022 -99.9 -99.99 -9.99
2019/11/17 09:36 EST    3.38   4.25   13  354   15  32.7  45.1 1029.8 27.4  1.022 -99.9 -99.99 -9.99
2019/11/17 09:42 EST    3.44   4.33   12  356   14  32.9  45.1 1029.7 27.4  1.022 -99.9 -99.99 -9.99
2019/11/17 09:48 EST    3.51   4.40   12  359   15  33.3  45.1 1029.6 27.4  1.022 -99.9 -99.99 -9.99
2019/11/17 09:54 EST    3.57   4.45   11  352   16  33.3  45.1 1029.6 27.4  1.022 -99.9 -99.99 -9.99
2019/11/17 10:00 EST    3.62   4.48   11  356   14  33.8  45.1 1029.6 27.4  1.022 -99.9 -99.99 -9.99
2019/11/17 10:06 EST    3.67   4.51   11  357   15  33.6  45.1 1029.5 27.4  1.022 -99.9 -99.99 -9.99
2019/11/17 10:12 EST    3.72   4.54   10  351   14  33.8  45.0 1029.4 27.5  1.022 -99.9 -99.99 -9.99
2019/11/17 10:18 EST    3.76   4.62   11  354   13  33.6  45.0 1029.2 27.4  1.022 -99.9 -99.99 -9.99
2019/11/17 10:24 EST    3.80   4.66   11  354   13  33.8  45.0 1029.1 27.4  1.022 -99.9 -99.99 -9.99
2019/11/17 10:30 EST    3.83   4.68   11  357   14  34.0  45.0 1029.1 27.5  1.022 -99.9 -99.99 -9.99
2019/11/17 10:36 EST    3.86   4.68   10  348   14  34.2  45.1 1028.8 27.4  1.022 -99.9 -99.99 -9.99
2019/11/17 10:42 EST    3.88   4.67   11  347   15  34.0  45.1 1028.6 27.4  1.022 -99.9 -99.99 -9.99
2019/11/17 10:48 EST    3.90   4.68   11  351   14  34.5  45.1 1028.5 27.4  1.022 -99.9 -99.99 -9.99
2019/11/17 10:54 EST    3.91   4.69   11  350   16  34.5  45.3 1028.5 27.4  1.022 -99.9 -99.99 -9.99
2019/11/17 11:00 EST    3.92   4.69   12  356   14  35.2  45.5 1028.5 27.3  1.022 -99.9 -99.99 -9.99
2019/11/17 11:06 EST    3.91   4.68   13  352   16  35.2  45.5 1028.4 27.3  1.022 -99.9 -99.99 -9.99
2019/11/17 11:12 EST    3.90   4.64   11  351   15  35.2  45.5 1028.3 27.4  1.022 -99.9 -99.99 -9.99
2019/11/17 11:18 EST    3.89   4.59   11  345   14  35.2  45.5 1028.1 27.4  1.022 -99.9 -99.99 -9.99
2019/11/17 11:24 EST    3.87   4.56   11  349   14  35.6  45.3 1028.0 27.4  1.022 -99.9 -99.99 -9.99
2019/11/17 11:30 EST    3.84   4.55   12  345   14  35.8  45.3 1027.9 27.4  1.022 -99.9 -99.99 -9.99
2019/11/17 11:36 EST    3.81   4.56   11  346   15  36.0  45.0 1027.8 27.4  1.022 -99.9 -99.99 -9.99
2019/11/17 11:42 EST    3.77   4.51   11  347   14  36.1  44.8 1027.6 27.4  1.022 -99.9 -99.99 -9.99
2019/11/17 11:48 EST    3.72   4.45   11  350   16  36.3  44.8 1027.6 27.4  1.022 -99.9 -99.99 -9.99
2019/11/17 11:54 EST    3.67   4.37   11  346   14  36.3  44.8 1027.4 27.3  1.022 -99.9 -99.99 -9.99
2019/11/17 12:00 EST    3.61   4.31   10  354   16  36.5  45.0 1027.3 27.2  1.022 -99.9 -99.99 -9.99
2019/11/17 12:06 EST    3.55   4.27   11  357   14  36.7  45.0 1027.3 27.2  1.022 -99.9 -99.99 -9.99
2019/11/17 12:12 EST    3.48   4.19   11    3   14  37.4  44.8 1027.1 27.3  1.022 -99.9 -99.99 -9.99
2019/11/17 12:18 EST    3.41   4.12   12    2   16  37.4  44.8 1027.0 27.2  1.022 -99.9 -99.99 -9.99
2019/11/17 12:24 EST    3.33   4.05   12  355   15  37.4  44.8 1026.8 27.2  1.022 -99.9 -99.99 -9.99
2019/11/17 12:30 EST    3.25   3.93   14  357   18  37.4  45.0 1026.8 27.2  1.022 -99.9 -99.99 -9.99
2019/11/17 12:36 EST    3.17   3.84   11  359   15  37.6  44.8 1026.7 27.3  1.022 -99.9 -99.99 -9.99
2019/11/17 12:42 EST    3.08   3.76   12  356   14  37.8  45.0 1026.6 27.2  1.022 -99.9 -99.99 -9.99
2019/11/17 12:48 EST    2.99   3.68   12  358   15  37.9  44.8 1026.5 27.3  1.022 -99.9 -99.99 -9.99
2019/11/17 12:54 EST    2.89   3.60   12    1   17  38.1  44.8 1026.4 27.3  1.022 -99.9 -99.99 -9.99
2019/11/17 13:00 EST    2.79   3.49   13    7   16  38.1  45.0 1026.3 27.2  1.022 -99.9 -99.99 -9.99
2019/11/17 13:06 EST    2.69   3.38   14  358   16  37.9  45.0 1026.1 27.2  1.022 -99.9 -99.99 -9.99
2019/11/17 13:12 EST    2.59   3.30   13  355   16  38.1  45.0 1026.1 27.2  1.022 -99.9 -99.99 -9.99
2019/11/17 13:18 EST    2.49   3.22   13  357   16  38.3  45.0 1025.9 27.2  1.022 -99.9 -99.99 -9.99
2019/11/17 13:24 EST    2.38   3.09   12  356   15  38.7  45.0 1025.7 27.2  1.022 -99.9 -99.99 -9.99
2019/11/17 13:30 EST    2.28   2.99   10  351   15  38.7  45.0 1025.8 27.3  1.022 -99.9 -99.99 -9.99
2019/11/17 13:36 EST    2.17   2.88   12  353   15  38.8  45.0 1025.7 27.3  1.022 -99.9 -99.99 -9.99
2019/11/17 13:42 EST    2.07   2.79   12  347   16  38.7  45.0 1025.6 27.3  1.022 -99.9 -99.99 -9.99
2019/11/17 13:48 EST    1.96   2.67   11  354   15  38.8  45.1 1025.5 27.2  1.022 -99.9 -99.99 -9.99
2019/11/17 13:54 EST    1.86   2.56   11  349   15  38.7  45.1 1025.4 27.2  1.022 -99.9 -99.99 -9.99
2019/11/17 14:00 EST    1.75   2.44   12  347   15  38.5  45.0 1025.3 27.3  1.022 -99.9 -99.99 -9.99
2019/11/17 14:06 EST    1.65   2.30   11  349   14  38.7  45.0 1025.2 27.3  1.022 -99.9 -99.99 -9.99
2019/11/17 14:12 EST    1.55   2.17   13  347   15  38.3  45.0 1025.2 27.3  1.022 -99.9 -99.99 -9.99
2019/11/17 14:18 EST    1.45   2.10   14  352   17  38.3  45.0 1025.2 27.3  1.022 -99.9 -99.99 -9.99
2019/11/17 14:24 EST    1.36   2.02   12  356   17  38.5  45.0 1025.1 27.3  1.022 -99.9 -99.99 -9.99
2019/11/17 14:30 EST    1.27   1.93   13  351   17  38.3  45.1 1025.0 27.2  1.022 -99.9 -99.99 -9.99
2019/11/17 14:36 EST    1.18   1.83   13  356   16  38.3  45.1 1025.0 27.2  1.022 -99.9 -99.99 -9.99
2019/11/17 14:42 EST    1.09   1.74   12  349   15  38.5  45.0 1025.0 27.3  1.022 -99.9 -99.99 -9.99
2019/11/17 14:48 EST    1.01   1.68   11  360   13  38.8  45.0 1024.9 27.3  1.022 -99.9 -99.99 -9.99
2019/11/17 14:54 EST    0.93   1.62   13  355   16  38.7  45.1 1024.9 27.3  1.022 -99.9 -99.99 -9.99
2019/11/17 15:00 EST    0.85   1.56   11  356   15  38.8  45.1 1024.8 27.3  1.022 -99.9 -99.99 -9.99
2019/11/17 15:06 EST    0.78   1.47   12  355   15  38.7  45.1 1024.8 27.4  1.022 -99.9 -99.99 -9.99
2019/11/17 15:12 EST    0.72   1.40   13  351   17  38.3  45.3 1024.7 27.3  1.022 -99.9 -99.99 -9.99
2019/11/17 15:18 EST    0.66   1.37   11  352   16  38.3  45.0 1024.6 27.4  1.022 -99.9 -99.99 -9.99
2019/11/17 15:24 EST    0.60   1.31   11  354   16  38.3  45.0 1024.6 27.4  1.022 -99.9 -99.99 -9.99
2019/11/17 15:30 EST    0.55   1.28   12  355   19  38.3  45.0 1024.6 27.3  1.022 -99.9 -99.99 -9.99
2019/11/17 15:36 EST    0.50   1.25   13  352   16  38.1  44.8 1024.6 27.4  1.022 -99.9 -99.99 -9.99
2019/11/17 15:42 EST    0.46   1.23   14  356   17  38.1  44.8 1024.5 27.4  1.022 -99.9 -99.99 -9.99
2019/11/17 15:48 EST    0.42   1.21   11    1   14  38.1  44.8 1024.5 27.3  1.022 -99.9 -99.99 -9.99
2019/11/17 15:54 EST    0.39   1.20   11  357   15  38.3  44.8 1024.5 27.3  1.022 -99.9 -99.99 -9.99
2019/11/17 16:00 EST    0.36   1.20   13  356   17  38.1  45.0 1024.4 27.2  1.022 -99.9 -99.99 -9.99
2019/11/17 16:06 EST    0.34   1.21   10  360   17  38.5  44.8 1024.3 27.3  1.022 -99.9 -99.99 -9.99
2019/11/17 16:12 EST    0.32   1.18   12    5   16  38.8  44.8 1024.2 27.3  1.022 -99.9 -99.99 -9.99
2019/11/17 16:18 EST    0.31   1.16   14    8   16  39.4  44.8 1024.2 27.3  1.022 -99.9 -99.99 -9.99
2019/11/17 16:24 EST    0.30   1.16   14    4   17  39.4  44.6 1024.1 27.3  1.022 -99.9 -99.99 -9.99
2019/11/17 16:30 EST    0.29   1.17   14    9   18  39.2  44.4 1024.0 27.4  1.022 -99.9 -99.99 -9.99
2019/11/17 16:36 EST    0.29   1.16   14    6   16  39.2  44.4 1023.8 27.4  1.022 -99.9 -99.99 -9.99
2019/11/17 16:42 EST    0.29   1.19   13    6   17  39.6  44.4 1023.8 27.4  1.022 -99.9 -99.99 -9.99
2019/11/17 16:48 EST    0.30   1.23   15    7   18  39.4  44.6 1023.7 27.3  1.022 -99.9 -99.99 -9.99
2019/11/17 16:54 EST    0.31   1.23   14   26   17  40.3  44.8 1023.7 27.3  1.022 -99.9 -99.99 -9.99
2019/11/17 17:00 EST    0.32   1.27   14   24   17  40.1  45.0 1023.6 27.2  1.022 -99.9 -99.99 -9.99
2019/11/17 17:06 EST    0.34   1.25   14   10   17  39.7  45.0 1023.5 27.2  1.022 -99.9 -99.99 -9.99
2019/11/17 17:12 EST    0.36   1.27   14   19   16  40.1  45.0 1023.4 27.2  1.022 -99.9 -99.99 -9.99
2019/11/17 17:18 EST    0.38   1.31   14   30   19  40.3  45.0 1023.3 27.2  1.022 -99.9 -99.99 -9.99
2019/11/17 17:24 EST    0.40   1.33   14   18   18  40.1  45.0 1023.3 27.2  1.022 -99.9 -99.99 -9.99
2019/11/17 17:30 EST    0.42   1.35   14   14   18  39.7  45.0 1023.2 27.2  1.022 -99.9 -99.99 -9.99
2019/11/17 17:36 EST    0.45   1.36   15   17   18  40.1  45.0 1023.1 27.2  1.022 -99.9 -99.99 -9.99
2019/11/17 17:42 EST    0.48   1.39   16   35   19  41.0  45.0 1023.0 27.2  1.022 -99.9 -99.99 -9.99
2019/11/17 17:48 EST    0.50   1.44   16   22   21  40.5  45.0 1022.9 27.2  1.022 -99.9 -99.99 -9.99
2019/11/17 17:54 EST    0.53   1.45   14   21   18  40.5  44.8 1022.9 27.2  1.022 -99.9 -99.99 -9.99
2019/11/17 18:00 EST    0.56   1.47   14   19   17  40.3  44.8 1022.8 27.2  1.022 -99.9 -99.99 -9.99
2019/11/17 18:06 EST    0.59   1.51   14   16   17  40.1  44.6 1022.8 27.3  1.022 -99.9 -99.99 -9.99
2019/11/17 18:12 EST    0.62   1.53   15   20   17  40.3  44.6 1022.7 27.3  1.022 -99.9 -99.99 -9.99
2019/11/17 18:18 EST    0.65   1.55   15   21   17  40.3  44.6 1022.6 27.3  1.022 -99.9 -99.99 -9.99
2019/11/17 18:24 EST    0.68   1.53   13   13   18  40.3  44.6 1022.5 27.2  1.022 -99.9 -99.99 -9.99
2019/11/17 18:30 EST    0.71   1.56   16   20   18  40.1  44.6 1022.4 27.2  1.022 -99.9 -99.99 -9.99
2019/11/17 18:36 EST    0.74   1.61   14   18   18  40.1  44.4 1022.3 27.1  1.022 -99.9 -99.99 -9.99
2019/11/17 18:42 EST    0.77   1.62   15   18   17  40.1  44.4 1022.3 27.3  1.022 -99.9 -99.99 -9.99
2019/11/17 18:48 EST    0.80   1.64   14   19   17  40.1  44.4 1022.2 27.3  1.022 -99.9 -99.99 -9.99
2019/11/17 18:54 EST    0.83   1.64   13   16   17  40.5  44.4 1022.2 27.3  1.022 -99.9 -99.99 -9.99
2019/11/17 19:00 EST    0.86   1.68   17   34   22  42.1  44.4 1022.1 27.3  1.022 -99.9 -99.99 -9.99
2019/11/17 19:06 EST    0.89   1.69   18   34   21  42.1  44.4 1021.9 27.4  1.022 -99.9 -99.99 -9.99
2019/11/17 19:12 EST    0.92   1.75   18   28   23  42.1  44.4 1021.7 27.3  1.022 -99.9 -99.99 -9.99
2019/11/17 19:18 EST    0.95   1.82   19   26   22  41.9  44.4 1021.7 27.3  1.022 -99.9 -99.99 -9.99
2019/11/17 19:24 EST    0.99   1.86   17   17   22  41.0  44.4 1021.7 27.3  1.022 -99.9 -99.99 -9.99
2019/11/17 19:30 EST    1.02   1.89   15   14   21  40.5  44.2 1021.5 27.4  1.022 -99.9 -99.99 -9.99
2019/11/17 19:36 EST    1.06   1.94   15   14   17  40.5  44.2 1021.6 27.4  1.022 -99.9 -99.99 -9.99
2019/11/17 19:42 EST    1.10   2.00   13   12   22  40.5  44.2 1021.6 27.4  1.022 -99.9 -99.99 -9.99
2019/11/17 19:48 EST    1.14   2.03   16   26   20  41.5  44.2 1021.5 27.3  1.022 -99.9 -99.99 -9.99
2019/11/17 19:54 EST    1.18   2.09   17   28   20  41.9  44.2 1021.3 27.4  1.022 -99.9 -99.99 -9.99
2019/11/17 20:00 EST    1.22   2.16   16   24   18  41.9  44.2 1021.2 27.3  1.022 -99.9 -99.99 -9.99
2019/11/17 20:06 EST    1.27   2.22   19   28   22  42.1  44.2 1021.0 27.3  1.022 -99.9 -99.99 -9.99
2019/11/17 20:12 EST    1.32   2.30   14   13   20  41.4  44.2 1020.9 27.3  1.022 -99.9 -99.99 -9.99
2019/11/17 20:18 EST    1.38   2.41   15   21   20  42.1  44.2 1020.7 27.3  1.022 -99.9 -99.99 -9.99
2019/11/17 20:24 EST    1.43   2.47   16   27   22  41.9  44.4 1020.6 27.3  1.022 -99.9 -99.99 -9.99
2019/11/17 20:30 EST    1.49   2.53   14    9   19  41.2  44.4 1020.5 27.3  1.022 -99.9 -99.99 -9.99
2019/11/17 20:36 EST    1.55   2.61   16   21   20  42.1  44.2 1020.4 27.3  1.022 -99.9 -99.99 -9.99
2019/11/17 20:42 EST    1.62   2.68   17   24   21  42.6  44.4 1020.2 27.3  1.022 -99.9 -99.99 -9.99
2019/11/17 20:48 EST    1.68   2.74   18   25   21  42.6  44.2 1020.0 27.3  1.022 -99.9 -99.99 -9.99
2019/11/17 20:54 EST    1.75   2.81   18   24   21  42.4  44.4 1019.8 27.3  1.022 -99.9 -99.99 -9.99
2019/11/17 21:00 EST    1.83   2.93   17   18   22  42.4  44.4 1019.9 27.3  1.022 -99.9 -99.99 -9.99
2019/11/17 21:06 EST    1.90   3.07   17   22   22  42.4  44.6 1019.8 27.2  1.022 -99.9 -99.99 -9.99
2019/11/17 21:12 EST    1.98   3.12   11  358   22  40.1  44.4 1019.7 27.3  1.022 -99.9 -99.99 -9.99
2019/11/17 21:18 EST    2.06   3.24   11  357   17  40.1  44.4 1019.5 27.3  1.022 -99.9 -99.99 -9.99
2019/11/17 21:24 EST    2.14   3.35   13    3   15  40.3  44.4 1019.4 27.3  1.022 -99.9 -99.99 -9.99
2019/11/17 21:30 EST    2.22   3.45   12  359   16  40.3  44.4 1019.4 27.3  1.022 -99.9 -99.99 -9.99
2019/11/17 21:36 EST    2.30   3.55   13  359   16  40.1  44.4 1019.3 27.3  1.022 -99.9 -99.99 -9.99
2019/11/17 21:42 EST    2.39   3.62   13    0   16  40.1  44.6 1019.3 27.3  1.022 -99.9 -99.99 -9.99
2019/11/17 21:48 EST    2.47   3.71   13  359   15  40.3  44.8 1019.2 27.2  1.022 -99.9 -99.99 -9.99
2019/11/17 21:54 EST    2.55   3.78   12    1   16  40.3  44.8 1019.2 27.2  1.022 -99.9 -99.99 -9.99
2019/11/17 22:00 EST    2.63   3.89   13    2   17  40.3  44.8 1019.1 27.2  1.022 -99.9 -99.99 -9.99
2019/11/17 22:06 EST    2.71   4.00   12    2   15  40.5  44.8 1019.2 27.2  1.022 -99.9 -99.99 -9.99
2019/11/17 22:12 EST    2.79   4.07   12  356   15  40.3  44.8 1019.1 27.2  1.022 -99.9 -99.99 -9.99
2019/11/17 22:18 EST    2.87   4.14   13  359   16  40.3  44.8 1018.9 27.2  1.022 -99.9 -99.99 -9.99
2019/11/17 22:24 EST    2.94   4.20   12  358   16  40.1  44.8 1018.7 27.2  1.022 -99.9 -99.99 -9.99
2019/11/17 22:30 EST    3.01   4.28   12  359   16  40.1  44.8 1018.6 27.3  1.022 -99.9 -99.99 -9.99
2019/11/17 22:36 EST    3.07   4.35   12    1   15  40.3  44.8 1018.5 27.3  1.022 -99.9 -99.99 -9.99
2019/11/17 22:42 EST    3.13   4.38   12  355   15  40.1  44.6 1018.5 27.3  1.022 -99.9 -99.99 -9.99
2019/11/17 22:48 EST    3.19   4.46   11  357   14  40.1  44.6 1018.4 27.3  1.022 -99.9 -99.99 -9.99
2019/11/17 22:54 EST    3.24   4.50   12  353   15  39.9  44.8 1018.3 27.3  1.022 -99.9 -99.99 -9.99
2019/11/17 23:00 EST    3.29   4.51   11  356   14  39.7  44.6 1018.1 27.3  1.022 -99.9 -99.99 -9.99
2019/11/17 23:06 EST    3.33   4.53   12  355   15  39.9  44.6 1018.0 27.3  1.022 -99.9 -99.99 -9.99
2019/11/17 23:12 EST    3.36   4.61   12  357   16  39.9  44.6 1017.9 27.3  1.022 -99.9 -99.99 -9.99
2019/11/17 23:18 EST    3.39   4.62   12  357   15  39.9  44.8 1017.8 27.3  1.022 -99.9 -99.99 -9.99
2019/11/17 23:24 EST    3.41   4.56   13  359   16  39.9  45.0 1017.6 27.2  1.022 -99.9 -99.99 -9.99
2019/11/17 23:30 EST    3.42   4.57   12  356   16  40.1  45.0 1017.6 27.2  1.022 -99.9 -99.99 -9.99
2019/11/17 23:36 EST    3.43   4.57   12  357   14  40.3  45.0 1017.5 27.2  1.022 -99.9 -99.99 -9.99
2019/11/17 23:42 EST    3.43   4.58   12  356   16  40.3  45.0 1017.5 27.2  1.022 -99.9 -99.99 -9.99
2019/11/17 23:48 EST    3.42   4.54   12  356   15  40.3  45.1 1017.4 27.2  1.022 -99.9 -99.99 -9.99
2019/11/17 23:54 EST    3.40   4.53   12  356   16  40.3  45.3 1017.2 27.1  1.022 -99.9 -99.99 -9.99
2019/11/18 00:00 EST    3.38   4.50   12  354   16  40.3  45.3 1017.2 27.2  1.022 -99.9 -99.99 -9.99
2019/11/18 00:06 EST    3.35   4.46   13  353   17  40.3  45.1 1017.1 27.3  1.022 -99.9 -99.99 -9.99
2019/11/18 00:12 EST    3.32   4.40   12  356   15  40.5  44.8 1017.0 27.3  1.022 -99.9 -99.99 -9.99
2019/11/18 00:18 EST    3.27   4.37   12  358   15  40.5  44.8 1017.0 27.1  1.022 -99.9 -99.99 -9.99
2019/11/18 00:24 EST    3.23   4.32   12  353   16  40.5  44.8 1016.9 27.1  1.022 -99.9 -99.99 -9.99
2019/11/18 00:30 EST    3.17   4.24   12  356   16  40.3  44.8 1016.9 27.1  1.022 -99.9 -99.99 -9.99
2019/11/18 00:36 EST    3.11   4.15   12  353   15  40.1  44.8 1016.7 27.0  1.022 -99.9 -99.99 -9.99
2019/11/18 00:42 EST    3.04   4.08   12  350   14  39.4  44.6 1016.6 27.1  1.022 -99.9 -99.99 -9.99
2019/11/18 00:48 EST    2.97   4.00   12  348   15  39.0  44.6 1016.4 27.1  1.022 -99.9 -99.99 -9.99
2019/11/18 00:54 EST    2.89   3.94   12  350   17  39.0  44.6 1016.3 27.1  1.022 -99.9 -99.99 -9.99
2019/11/18 01:00 EST    2.81   3.85   11  346   14  38.8  44.6 1016.3 27.1  1.022 -99.9 -99.99 -9.99
2019/11/18 01:06 EST    2.73   3.78   12  349   16  38.7  44.6 1016.2 27.1  1.022 -99.9 -99.99 -9.99
2019/11/18 01:12 EST    2.64   3.68   12  349   15  38.5  44.8 1016.1 27.0  1.022 -99.9 -99.99 -9.99
2019/11/18 01:18 EST    2.54   3.59   11  351   16  38.7  44.6 1015.9 27.1  1.022 -99.9 -99.99 -9.99
2019/11/18 01:24 EST    2.45   3.52   14  357   18  38.7  44.6 1015.8 27.1  1.022 -99.9 -99.99 -9.99
2019/11/18 01:30 EST    2.35   3.43   13  354   19  38.8  44.6 1015.7 27.1  1.022 -99.9 -99.99 -9.99
2019/11/18 01:36 EST    2.24   3.31   14  356   17  38.8  44.8 1015.6 27.1  1.022 -99.9 -99.99 -9.99
2019/11/18 01:42 EST    2.14   3.17   15  354   18  39.0  44.8 1015.5 27.1  1.022 -99.9 -99.99 -9.99
2019/11/18 01:48 EST    2.04   3.08   16  356   18  38.8  44.8 1015.4 27.1  1.022 -99.9 -99.99 -9.99
2019/11/18 01:54 EST    1.93   2.98   16  353   21  38.8  44.8 1015.2 27.1  1.022 -99.9 -99.99 -9.99
2019/11/18 02:00 EST    1.83   2.90   15  354   20  38.7  44.8 1015.1 27.1  1.022 -99.9 -99.99 -9.99
2019/11/18 02:06 EST    1.72   2.84   15  351   21  38.5  44.8 1015.0 27.1  1.022 -99.9 -99.99 -9.99
2019/11/18 02:12 EST    1.61   2.77   16  354   20  38.3  44.8 1014.9 27.1  1.022 -99.9 -99.99 -9.99
2019/11/18 02:18 EST    1.51   2.66   15  351   22  38.1  44.6 1014.7 27.2  1.022 -99.9 -99.99 -9.99
2019/11/18 02:24 EST    1.41   2.56   17  354   20  38.3  44.6 1014.5 27.1  1.022 -99.9 -99.99 -9.99
2019/11/18 02:30 EST    1.31   2.45   17  358   20  38.3  44.6 1014.4 27.1  1.022 -99.9 -99.99 -9.99
2019/11/18 02:36 EST    1.21   2.37   17  355   22  38.3  44.6 1014.3 27.2  1.022 -99.9 -99.99 -9.99
2019/11/18 02:42 EST    1.11   2.31   17  358   22  38.3  44.8 1014.1 27.1  1.022 -99.9 -99.99 -9.99
2019/11/18 02:48 EST    1.02   2.20   15  356   22  38.1  44.8 1014.1 27.2  1.022 -99.9 -99.99 -9.99
2019/11/18 02:54 EST    0.93   2.10   16  356   20  37.9  44.8 1014.0 27.2  1.022 -99.9 -99.99 -9.99
2019/11/18 03:00 EST    0.84   2.02   14  354   20  38.1  44.8 1014.1 27.2  1.022 -99.9 -99.99 -9.99
2019/11/18 03:06 EST    0.76   1.94   16  360   21  37.9  45.0 1014.0 27.2  1.022 -99.9 -99.99 -9.99
2019/11/18 03:12 EST    0.68   1.87   15  358   20  37.8  45.0 1013.8 27.1  1.022 -99.9 -99.99 -9.99
2019/11/18 03:18 EST    0.61   1.80   16  353   22  37.8  44.8 1013.9 27.2  1.022 -99.9 -99.99 -9.99
2019/11/18 03:24 EST    0.54   1.75   16  358   22  37.8  44.8 1013.9 27.1  1.022 -99.9 -99.99 -9.99
2019/11/18 03:30 EST    0.48   1.69   15  359   21  37.9  44.8 1013.9 27.1  1.022 -99.9 -99.99 -9.99
2019/11/18 03:36 EST    0.42   1.66   17  360   24  37.8  44.8 1013.7 27.2  1.022 -99.9 -99.99 -9.99
2019/11/18 03:42 EST    0.37   1.63   17  356   22  37.8  44.6 1013.7 27.2  1.022 -99.9 -99.99 -9.99
2019/11/18 03:48 EST    0.32   1.58   17  357   23  38.1  44.6 1013.7 27.1  1.022 -99.9 -99.99 -9.99
2019/11/18 03:54 EST    0.28   1.54   17  355   20  37.9  44.8 1013.6 27.1  1.022 -99.9 -99.99 -9.99
2019/11/18 04:00 EST    0.24   1.47   16    1   23  38.3  44.6 1013.6 27.2  1.022 -99.9 -99.99 -9.99
2019/11/18 04:06 EST    0.21   1.45   17    0   22  38.1  44.6 1013.5 27.2  1.022 -99.9 -99.99 -9.99
2019/11/18 04:12 EST    0.19   1.45   18  358   23  38.1  44.6 1013.4 27.2  1.022 -99.9 -99.99 -9.99
2019/11/18 04:18 EST    0.17   1.43   18    3   23  38.1  44.6 1013.3 27.2  1.022 -99.9 -99.99 -9.99
2019/11/18 04:24 EST    0.16   1.46   18    1   22  38.1  44.6 1013.2 27.2  1.022 -99.9 -99.99 -9.99
2019/11/18 04:30 EST    0.16   1.49   18  358   24  37.9  44.6 1013.1 27.1  1.022 -99.9 -99.99 -9.99
2019/11/18 04:36 EST    0.16   1.51   17  357   22  37.9  44.6 1013.0 27.1  1.022 -99.9 -99.99 -9.99
2019/11/18 04:42 EST    0.16   1.51   17  354   22  37.9  44.4 1012.9 27.2  1.022 -99.9 -99.99 -9.99
2019/11/18 04:48 EST    0.17   1.55   18    0   23  37.8  44.4 1012.9 27.2  1.022 -99.9 -99.99 -9.99
2019/11/18 04:54 EST    0.19   1.63   19  359   23  37.9  44.4 1012.7 27.2  1.022 -99.9 -99.99 -9.99
2019/11/18 05:00 EST    0.21   1.66   17  356   22  37.9  44.2 1012.7 27.3  1.022 -99.9 -99.99 -9.99
2019/11/18 05:06 EST    0.23   1.69   18  356   21  37.8  44.4 1012.7 27.2  1.022 -99.9 -99.99 -9.99
2019/11/18 05:12 EST    0.26   1.72   16  360   22  37.8  44.4 1012.6 27.2  1.022 -99.9 -99.99 -9.99
2019/11/18 05:18 EST    0.29   1.74   18  355   22  37.6  44.4 1012.3 27.2  1.022 -99.9 -99.99 -9.99
2019/11/18 05:24 EST    0.33   1.74   19  356   22  37.8  44.4 1012.4 27.2  1.022 -99.9 -99.99 -9.99
2019/11/18 05:30 EST    0.37   1.76   17  355   22  37.8  44.4 1012.5 27.2  1.022 -99.9 -99.99 -9.99
2019/11/18 05:36 EST    0.41   1.82   15  355   19  37.8  44.6 1012.4 27.1  1.022 -99.9 -99.99 -9.99
2019/11/18 05:42 EST    0.45   1.83   17  354   22  37.6  44.6 1012.4 27.1  1.022 -99.9 -99.99 -9.99
2019/11/18 05:48 EST    0.50   1.86   18  357   21  37.6  44.6 1012.3 27.1  1.022 -99.9 -99.99 -9.99
2019/11/18 05:54 EST    0.55   1.91   17  357   23  37.4  44.6 1012.2 27.2  1.022 -99.9 -99.99 -9.99
2019/11/18 06:00 EST    0.60   2.00   17  354   21  37.4  44.6 1012.0 27.1  1.022 -99.9 -99.99 -9.99
2019/11/18 06:06 EST    0.65   2.04   17  357   23  37.4  44.6 1012.0 27.2  1.022 -99.9 -99.99 -9.99
2019/11/18 06:12 EST    0.70   2.09   16  357   21  37.2  44.6 1012.0 27.2  1.022 -99.9 -99.99 -9.99
2019/11/18 06:18 EST    0.76   2.18   17  354   21  37.0  44.6 1011.9 27.2  1.022 -99.9 -99.99 -9.99
2019/11/18 06:24 EST    0.81   2.21   17  354   23  37.0  44.6 1011.9 27.2  1.022 -99.9 -99.99 -9.99
2019/11/18 06:30 EST    0.86   2.23   19  354   23  37.0  44.6 1011.8 27.0  1.022 -99.9 -99.99 -9.99
2019/11/18 06:36 EST    0.91   2.29   17  355   22  37.0  44.6 1011.9 27.2  1.022 -99.9 -99.99 -9.99
2019/11/18 06:42 EST    0.97   2.35   17  354   22  36.9  44.4 1011.9 27.3  1.022 -99.9 -99.99 -9.99
2019/11/18 06:48 EST    1.02   2.40   17  351   22  36.9  44.4 1011.9 27.2  1.022 -99.9 -99.99 -9.99
2019/11/18 06:54 EST    1.07   2.41   17  358   23  36.7  44.4 1011.9 27.3  1.022 -99.9 -99.99 -9.99
2019/11/18 07:00 EST    1.12   2.46   17  357   24  36.7  44.4 1011.9 27.3  1.022 -99.9 -99.99 -9.99
2019/11/18 07:06 EST    1.17   2.53   19  356   23  36.5  44.4 1011.8 27.3  1.022 -99.9 -99.99 -9.99
2019/11/18 07:12 EST    1.22   2.55   16  355   24  36.5  44.4 1011.8 27.2  1.022 -99.9 -99.99 -9.99
2019/11/18 07:18 EST    1.27   2.62   19  358   23  36.7  44.4 1011.7 27.2  1.022 -99.9 -99.99 -9.99
2019/11/18 07:24 EST    1.32   2.68   17  357   23  36.7  44.4 1011.6 27.3  1.022 -99.9 -99.99 -9.99
2019/11/18 07:30 EST    1.36   2.73   18  354   23  36.7  44.6 1011.5 27.2  1.022 -99.9 -99.99 -9.99
2019/11/18 07:36 EST    1.41   2.79   18  355   24  36.7  44.6 1011.4 27.2  1.022 -99.9 -99.99 -9.99
2019/11/18 07:42 EST    1.46   2.85   18  354   23  36.9  44.8 1011.2 27.1  1.022 -99.9 -99.99 -9.99
2019/11/18 07:48 EST    1.51   2.87   19  354   24  36.7  44.6 1011.0 27.1  1.022 -99.9 -99.99 -9.99
2019/11/18 07:54 EST    1.56   2.91   20  354   25  36.7  44.6 1011.0 27.1  1.022 -99.9 -99.99 -9.99
2019/11/18 08:00 EST    1.60   2.92   19  354   26  36.9  44.4 1011.0 27.1  1.022 -99.9 -99.99 -9.99
2019/11/18 08:06 EST    1.65   2.97   17  354   28  36.9  44.4 1011.0 27.0  1.022 -99.9 -99.99 -9.99
2019/11/18 08:12 EST    1.70   3.00   18  357   25  36.9  44.6 1010.8 27.0  1.022 -99.9 -99.99 -9.99
2019/11/18 08:18 EST    1.75   3.07   19  354   25  36.9  44.4 1010.7 27.0  1.022 -99.9 -99.99 -9.99
2019/11/18 08:24 EST    1.81   3.14   18  353   24  36.9  44.4 1010.6 27.0  1.022 -99.9 -99.99 -9.99
2019/11/18 08:30 EST    1.86   3.17   20    0   24  37.0  44.4 1010.5 27.0  1.022 -99.9 -99.99 -9.99
2019/11/18 08:36 EST    1.92   3.20   20  357   26  37.2  44.4 1010.4 27.0  1.022 -99.9 -99.99 -9.99
2019/11/18 08:42 EST    1.97   3.27   20  353   25  37.0  44.6 1010.3 27.0  1.022 -99.9 -99.99 -9.99
2019/11/18 08:48 EST    2.03   3.38   17  355   26  37.2  44.6 1010.3 27.0  1.022 -99.9 -99.99 -9.99
2019/11/18 08:54 EST    2.09   3.45   21  357   27  37.4  44.6 1010.1 27.0  1.022 -99.9 -99.99 -9.99
2019/11/18 09:00 EST    2.16   3.51   20  357   25  37.6  44.2 1010.0 27.1  1.022 -99.9 -99.99 -9.99
2019/11/18 09:06 EST    2.22   3.57   24  357   27  37.4  44.4 1009.7 27.0  1.022 -99.9 -99.99 -9.99
2019/11/18 09:12 EST    2.29   3.62   20  357   27  37.9  44.4 1009.6 27.1  1.022 -99.9 -99.99 -9.99
2019/11/18 09:18 EST    2.36   3.65   23  357   28  37.8  44.2 1009.5 27.0  1.022 -99.9 -99.99 -9.99
2019/11/18 09:24 EST    2.43   3.72   21  359   27  37.8  44.4 1009.4 27.0  1.022 -99.9 -99.99 -9.99
2019/11/18 09:30 EST    2.50   3.80   21  357   29  37.8  44.6 1009.4 27.0  1.022 -99.9 -99.99 -9.99
2019/11/18 09:36 EST    2.57   3.89   20  359   26  37.9  44.4 1009.4 27.0  1.022 -99.9 -99.99 -9.99
2019/11/18 09:42 EST    2.65   3.95   22  357   27  37.8  44.4 1009.2 27.0  1.022 -99.9 -99.99 -9.99
2019/11/18 09:48 EST    2.72   4.03   22  358   26  37.9  44.4 1009.2 27.0  1.022 -99.9 -99.99 -9.99
2019/11/18 09:54 EST    2.80   4.12   22  355   27  37.9  44.4 1009.2 27.0  1.022 -99.9 -99.99 -9.99
2019/11/18 10:00 EST    2.88   4.20   22    2   26  38.1  44.4 1009.2 27.0  1.022 -99.9 -99.99 -9.99
2019/11/18 10:06 EST    2.95   4.29   18  359   26  38.3  44.6 1009.1 27.0  1.022 -99.9 -99.99 -9.99
2019/11/18 10:12 EST    3.03   4.36   20    1   28  38.5  44.6 1008.9 26.9  1.022 -99.9 -99.99 -9.99
2019/11/18 10:18 EST    3.10   4.42   20  360   27  38.7  44.4 1008.7 27.0  1.022 -99.9 -99.99 -9.99
2019/11/18 10:24 EST    3.18   4.48   20  356   29  38.5  44.4 1008.6 27.0  1.022 -99.9 -99.99 -9.99
2019/11/18 10:30 EST    3.25   4.56   21    4   27  38.8  44.4 1008.7 27.0  1.022 -99.9 -99.99 -9.99
2019/11/18 10:36 EST    3.32   4.63   21    2   27  38.8  44.4 1008.4 27.0  1.022 -99.9 -99.99 -9.99
2019/11/18 10:42 EST    3.39   4.72   21    6   28  39.0  44.4 1008.4 27.0  1.022 -99.9 -99.99 -9.99
2019/11/18 10:48 EST    3.45   4.80   20  359   28  39.2  44.4 1008.3 27.0  1.022 -99.9 -99.99 -9.99
2019/11/18 10:54 EST    3.51   4.89   21  360   25  39.0  44.4 1008.1 27.0  1.022 -99.9 -99.99 -9.99
2019/11/18 11:00 EST    3.57   4.97   20  359   27  39.0  44.4 1008.0 27.0  1.022 -99.9 -99.99 -9.99
2019/11/18 11:06 EST    3.62   5.00   19    2   27  39.0  44.6 1008.0 27.0  1.022 -99.9 -99.99 -9.99
2019/11/18 11:12 EST    3.67   5.05   21  357   28  38.8  44.6 1007.9 26.9  1.022 -99.9 -99.99 -9.99
2019/11/18 11:18 EST    3.71   5.07   19  356   25  38.8  44.4 1007.8 26.9  1.022 -99.9 -99.99 -9.99
2019/11/18 11:24 EST    3.75   5.08   19  359   24  38.7  44.4 1007.7 26.9  1.022 -99.9 -99.99 -9.99
2019/11/18 11:30 EST    3.78   5.14   21  359   25  38.7  44.6 1007.4 26.8  1.022 -99.9 -99.99 -9.99
2019/11/18 11:36 EST    3.81   5.14   20  354   26  38.7  44.4 1007.3 26.9  1.022 -99.9 -99.99 -9.99
2019/11/18 11:42 EST    3.83   5.11   18  359   25  38.8  44.4 1007.3 26.9  1.022 -99.9 -99.99 -9.99
2019/11/18 11:48 EST    3.84   5.16   19    0   27  38.8  44.6 1007.2 26.8  1.022 -99.9 -99.99 -9.99
2019/11/18 11:54 EST    3.85   5.18   22    2   27  38.7  44.6 1007.0 26.8  1.022 -99.9 -99.99 -9.99
2019/11/18 12:00 EST    3.85   5.17   18  359   26  38.8  44.6 1006.9 26.9  1.022 -99.9 -99.99 -9.99
2019/11/18 12:06 EST    3.85   5.17   17    2   25  38.8  44.6 1006.8 26.9  1.022 -99.9 -99.99 -9.99
2019/11/18 12:12 EST    3.83   5.14   22    5   28  38.8  44.4 1006.6 26.9  1.022 -99.9 -99.99 -9.99
2019/11/18 12:18 EST    3.82   5.14   21    1   27  39.0  44.4 1006.5 26.9  1.022 -99.9 -99.99 -9.99
2019/11/18 12:24 EST    3.79   5.10   19  358   26  39.2  44.4 1006.4 26.9  1.022 -99.9 -99.99 -9.99
2019/11/18 12:30 EST    3.76   5.06   20  358   27  39.4  44.4 1006.2 26.9  1.022 -99.9 -99.99 -9.99
2019/11/18 12:36 EST    3.72   5.02   21  356   26  39.4  44.4 1006.1 26.9  1.022 -99.9 -99.99 -9.99
2019/11/18 12:42 EST    3.68   4.93   20  359   26  39.6  44.4 1006.0 26.9  1.022 -99.9 -99.99 -9.99
2019/11/18 12:48 EST    3.63   4.89   23    0   28  39.7  44.4 1005.8 27.0  1.022 -99.9 -99.99 -9.99
2019/11/18 12:54 EST    3.57   4.87   20    2   24  39.7  44.2 1005.7 27.0  1.022 -99.9 -99.99 -9.99
2019/11/18 13:00 EST    3.51   4.80   20  359   25  39.6  44.2 1005.7 26.9  1.022 -99.9 -99.99 -9.99
2019/11/18 13:06 EST    3.45   4.76   20  358   26  39.6  44.2 1005.5 27.0  1.022 -99.9 -99.99 -9.99
2019/11/18 13:12 EST    3.38   4.69   18    2   23  39.6  44.2 1005.4 27.0  1.022 -99.9 -99.99 -9.99
2019/11/18 13:18 EST    3.30   4.63   21  357   26  39.2  44.2 1005.2 27.0  1.022 -99.9 -99.99 -9.99
2019/11/18 13:24 EST    3.22   4.51   21  357   27  39.2  44.2 1004.9 26.8  1.022 -99.9 -99.99 -9.99
2019/11/18 13:30 EST    3.14   4.39   21  360   27  39.4  44.4 1004.9 26.8  1.022 -99.9 -99.99 -9.99
2019/11/18 13:36 EST    3.05   4.31   21  359   25  39.4  44.6 1004.8 26.9  1.022 -99.9 -99.99 -9.99
2019/11/18 13:42 EST    2.96   4.25   19    1   27  39.6  44.4 1004.8 26.9  1.022 -99.9 -99.99 -9.99
2019/11/18 13:48 EST    2.87   4.17   21    0   25  39.6  44.4 1004.8 26.9  1.022 -99.9 -99.99 -9.99
2019/11/18 13:54 EST    2.77   4.06   18  353   25  39.6  44.2 1004.8 26.9  1.022 -99.9 -99.99 -9.99
2019/11/18 14:00 EST    2.67   3.95   19  359   26  39.7  44.2 1004.7 26.9  1.022 -99.9 -99.99 -9.99
2019/11/18 14:06 EST    2.57   3.85   20    0   25  39.7  44.4 1004.6 26.9  1.022 -99.9 -99.99 -9.99
2019/11/18 14:12 EST    2.47   3.74   20    1   26  39.9  44.8 1004.5 26.9  1.022 -99.9 -99.99 -9.99
2019/11/18 14:18 EST    2.37   3.68   20  354   25  39.9  44.4 1004.5 26.9  1.022 -99.9 -99.99 -9.99
2019/11/18 14:24 EST    2.27   3.58   20  358   25  40.1  44.4 1004.4 26.8  1.022 -99.9 -99.99 -9.99
2019/11/18 14:30 EST    2.17   3.47   20  359   26  40.3  44.4 1004.4 26.9  1.022 -99.9 -99.99 -9.99
2019/11/18 14:36 EST    2.06   3.37   21  358   25  40.5  44.4 1004.5 26.9  1.022 -99.9 -99.99 -9.99
2019/11/18 14:42 EST    1.96   3.23   20    2   24  40.5  44.4 1004.4 26.7  1.022 -99.9 -99.99 -9.99
2019/11/18 14:48 EST    1.86   3.13   17  356   26  40.6  44.4 1004.4 26.8  1.022 -99.9 -99.99 -9.99
2019/11/18 14:54 EST    1.76   3.05   19  356   25  40.8  44.6 1004.4 26.8  1.022 -99.9 -99.99 -9.99
2019/11/18 15:00 EST    1.66   2.98   19    0   24  40.8  44.8 1004.5 26.9  1.022 -99.9 -99.99 -9.99
2019/11/18 15:06 EST    1.57   2.85   17  357   24  40.8  44.8 1004.5 26.8  1.022 -99.9 -99.99 -9.99
2019/11/18 15:12 EST    1.48   2.77   16  358   21  41.0  44.4 1004.6 26.8  1.022 -99.9 -99.99 -9.99
2019/11/18 15:18 EST    1.39   2.72   15  355   21  41.0  45.1 1004.7 26.9  1.022 -99.9 -99.99 -9.99
2019/11/18 15:24 EST    1.30   2.64   15  351   23  41.0  44.6 1004.8 26.9  1.022 -99.9 -99.99 -9.99
2019/11/18 15:30 EST    1.21   2.59   16  350   21  41.0  44.2 1005.0 26.9  1.022 -99.9 -99.99 -9.99
2019/11/18 15:36 EST    1.13   2.53   17  351   24  41.0  45.0 1004.7 26.8  1.022 -99.9 -99.99 -9.99
2019/11/18 15:42 EST    1.05   2.50   16  352   24  41.2  45.1 1004.6 26.8  1.022 -99.9 -99.99 -9.99
2019/11/18 15:48 EST    0.98   2.44   18  354   23  41.2  45.1 1004.4 26.9  1.022 -99.9 -99.99 -9.99
2019/11/18 15:54 EST    0.91   2.34   20  352   24  41.2  45.3 1004.2 26.9  1.022 -99.9 -99.99 -9.99
2019/11/18 16:00 EST    0.84   2.28   18  352   25  41.2  45.3 1004.2 26.9  1.022 -99.9 -99.99 -9.99
2019/11/18 16:06 EST    0.78   2.21   18  355   23  41.2  44.8 1004.1 27.0  1.022 -99.9 -99.99 -9.99
2019/11/18 16:12 EST    0.73   2.19   17  355   23  41.0  44.4 1004.2 27.1  1.022 -99.9 -99.99 -9.99
2019/11/18 16:18 EST    0.67   2.16   17  351   23  41.0  44.4 1004.3 27.2  1.022 -99.9 -99.99 -9.99
2019/11/18 16:24 EST    0.63   2.14   17  357   21  41.0  44.4 1004.3 27.2  1.022 -99.9 -99.99 -9.99
2019/11/18 16:30 EST    0.58   2.11   20  359   25  41.2  44.4 1003.9 27.1  1.022 -99.9 -99.99 -9.99
2019/11/18 16:36 EST    0.54   2.09   18  359   25  41.2  44.4 1003.8 27.2  1.022 -99.9 -99.99 -9.99
2019/11/18 16:42 EST    0.51   2.07   17  357   23  41.2  44.4 1004.0 27.2  1.022 -99.9 -99.99 -9.99
2019/11/18 16:48 EST    0.48   2.09   16  358   18  41.2  44.4 1004.2 27.2  1.022 -99.9 -99.99 -9.99
2019/11/18 16:54 EST    0.45   2.09   16  358   22  41.0  44.4 1004.2 27.2  1.022 -99.9 -99.99 -9.99
2019/11/18 17:00 EST    0.43   2.08   18  356   23  41.2  44.4 1004.2 27.2  1.022 -99.9 -99.99 -9.99
2019/11/18 17:06 EST    0.42   2.08   17  359   23  41.2  44.4 1004.0 27.1  1.022 -99.9 -99.99 -9.99
2019/11/18 17:12 EST    0.40   2.03   18    0   22  41.0  44.4 1003.9 27.1  1.022 -99.9 -99.99 -9.99
2019/11/18 17:18 EST    0.39   2.04   17    1   24  41.2  44.4 1003.9 27.1  1.022 -99.9 -99.99 -9.99
2019/11/18 17:24 EST    0.39   2.06   17  354   22  41.0  44.4 1004.0 27.0  1.022 -99.9 -99.99 -9.99
2019/11/18 17:30 EST    0.39   2.04   16  354   20  41.0  44.4 1004.3 27.0  1.022 -99.9 -99.99 -9.99
2019/11/18 17:36 EST    0.39   1.98   13  349   20  41.0  44.4 1004.7 26.9  1.022 -99.9 -99.99 -9.99
2019/11/18 17:42 EST    0.39   1.97   13  349   18  41.0  44.4 1004.8 26.9  1.022 -99.9 -99.99 -9.99
2019/11/18 17:48 EST    0.40   2.03   15  351   19  41.0  44.4 1004.7 26.9  1.022 -99.9 -99.99 -9.99
2019/11/18 17:54 EST    0.41   2.03   15  356   19  41.0  44.4 1004.5 26.9  1.022 -99.9 -99.99 -9.99
2019/11/18 18:00 EST    0.42   2.02   12  351   19  41.0  44.4 1004.6 27.0  1.022 -99.9 -99.99 -9.99
2019/11/18 18:06 EST    0.43   2.06   14  347   19  41.0  44.4 1004.6 27.0  1.022 -99.9 -99.99 -9.99
2019/11/18 18:12 EST    0.45   2.08   12  349   18  41.0  44.4 1004.6 27.0  1.022 -99.9 -99.99 -9.99
2019/11/18 18:18 EST    0.46   2.04   14  355   18  41.0  44.4 1004.3 27.0  1.022 -99.9 -99.99 -9.99
2019/11/18 18:24 EST    0.48   2.05   14  357   20  41.0  44.4 1004.3 26.9  1.022 -99.9 -99.99 -9.99
2019/11/18 18:30 EST    0.50   2.06   14  355   19  41.0  44.4 1004.2 27.0  1.022 -99.9 -99.99 -9.99
2019/11/18 18:36 EST    0.52   2.05   15  357   24  41.0  44.4 1004.1 27.0  1.022 -99.9 -99.99 -9.99
2019/11/18 18:42 EST    0.54   2.02   14  353   23  41.0  44.4 1004.2 26.9  1.022 -99.9 -99.99 -9.99
2019/11/18 18:48 EST    0.56   2.01   14  357   20  41.0  44.4 1004.2 26.9  1.022 -99.9 -99.99 -9.99
2019/11/18 18:54 EST    0.58   1.99   15  354   18  41.0  44.4 1004.2 27.0  1.022 -99.9 -99.99 -9.99
2019/11/18 19:00 EST    0.60   1.96   16  357   20  40.8  44.4 1003.9 26.9  1.022 -99.9 -99.99 -9.99
2019/11/18 19:06 EST    0.62   1.94   16  351   23  40.8  44.4 1003.9 26.9  1.022 -99.9 -99.99 -9.99
2019/11/18 19:12 EST    0.64   1.99   14  344   19  40.8  44.4 1004.3 27.0  1.022 -99.9 -99.99 -9.99
2019/11/18 19:18 EST    0.66   2.02   10  342   15  40.8  44.4 1004.4 26.9  1.022 -99.9 -99.99 -9.99
2019/11/18 19:24 EST    0.68   2.04   12  350   14  40.8  44.6 1004.5 26.9  1.022 -99.9 -99.99 -9.99
2019/11/18 19:30 EST    0.70   2.03   12  352   15  40.8  44.6 1004.6 26.8  1.022 -99.9 -99.99 -9.99
2019/11/18 19:36 EST    0.72   2.05   10  352   16  40.8  44.6 1004.8 26.7  1.022 -99.9 -99.99 -9.99
2019/11/18 19:42 EST    0.74   2.06   12  352   16  40.8  44.4 1004.7 26.8  1.022 -99.9 -99.99 -9.99
2019/11/18 19:48 EST    0.76   2.06   11  347   17  40.8  44.4 1004.8 26.9  1.022 -99.9 -99.99 -9.99
2019/11/18 19:54 EST    0.78   2.08    8  336   12  40.8  44.4 1005.1 26.9  1.022 -99.9 -99.99 -9.99
2019/11/18 20:00 EST    0.81   2.11    9  339   13  40.8  44.6 1005.4 26.8  1.022 -99.9 -99.99 -9.99
2019/11/18 20:06 EST    0.83   2.14    9  344   12  40.8  44.4 1005.4 26.9  1.022 -99.9 -99.99 -9.99
2019/11/18 20:12 EST    0.86   2.16    8  338   13  40.8  44.4 1005.5 26.9  1.022 -99.9 -99.99 -9.99
2019/11/18 20:18 EST    0.88   2.19    8  341   12  40.8  44.6 1005.5 26.8  1.022 -99.9 -99.99 -9.99
2019/11/18 20:24 EST    0.91   2.21   10  344   12  40.8  44.6 1005.3 26.8  1.022 -99.9 -99.99 -9.99
2019/11/18 20:30 EST    0.95   2.25   10  337   12  40.8  44.8 1005.2 26.7  1.022 -99.9 -99.99 -9.99
2019/11/18 20:36 EST    0.98   2.30   10  343   13  40.8  44.6 1005.0 26.7  1.022 -99.9 -99.99 -9.99
2019/11/18 20:42 EST    1.02   2.37    9  348   13  40.8  44.4 1005.1 26.8  1.022 -99.9 -99.99 -9.99
2019/11/18 20:48 EST    1.06   2.47   10  347   13  40.8  44.4 1005.0 26.9  1.022 -99.9 -99.99 -9.99
2019/11/18 20:54 EST    1.10   2.52    9  348   12  40.8  44.4 1004.9 26.8  1.022 -99.9 -99.99 -9.99
2019/11/18 21:00 EST    1.15   2.60   11  345   13  40.8  44.4 1004.7 26.8  1.022 -99.9 -99.99 -9.99
2019/11/18 21:06 EST    1.20   2.68   11  352   14  41.0  44.4 1004.6 26.8  1.022 -99.9 -99.99 -9.99
2019/11/18 21:12 EST    1.25   2.73   13  356   15  40.8  44.6 1004.4 26.8  1.022 -99.9 -99.99 -9.99
2019/11/18 21:18 EST    1.31   2.81   12  360   16  41.0  44.6 1004.3 26.8  1.022 -99.9 -99.99 -9.99
2019/11/18 21:24 EST    1.37   2.93   11  356   15  40.8  44.6 1004.3 26.8  1.022 -99.9 -99.99 -9.99
2019/11/18 21:30 EST    1.44   3.01   11  353   15  40.8  44.6 1004.3 26.8  1.022 -99.9 -99.99 -9.99
2019/11/18 21:36 EST    1.50   3.07   10  351   14  40.8  44.4 1004.2 26.9  1.022 -99.9 -99.99 -9.99
2019/11/18 21:42 EST    1.58   3.20   10  355   15  41.0  44.4 1004.1 26.9  1.022 -99.9 -99.99 -9.99
2019/11/18 21:48 EST    1.65   3.36   14    5   16  41.0  44.4 1004.0 26.9  1.022 -99.9 -99.99 -9.99
2019/11/18 21:54 EST    1.73   3.44   10  357   13  41.0  44.6 1004.0 26.8  1.022 -99.9 -99.99 -9.99
2019/11/18 22:00 EST    1.81   3.50   10  354   13  41.0  44.4 1004.1 26.9  1.022 -99.9 -99.99 -9.99
2019/11/18 22:06 EST    1.89   3.64   11    1   15  41.0  44.6 1004.2 26.8  1.022 -99.9 -99.99 -9.99
2019/11/18 22:12 EST    1.98   3.78   10  357   15  41.0  44.6 1004.1 26.9  1.022 -99.9 -99.99 -9.99
2019/11/18 22:18 EST    2.07   3.90   12  359   16  41.0  44.6 1003.9 26.8  1.022 -99.9 -99.99 -9.99
2019/11/18 22:24 EST    2.15   3.98   14    3   17  41.0  44.6 1003.8 26.8  1.022 -99.9 -99.99 -9.99
2019/11/18 22:30 EST    2.24   4.09   11    0   14  41.0  44.6 1004.0 26.8  1.022 -99.9 -99.99 -9.99
2019/11/18 22:36 EST    2.33   4.16    9    2   13  41.0  44.4 1004.1 26.9  1.022 -99.9 -99.99 -9.99
2019/11/18 22:42 EST    2.42   4.26    9  347   14  41.0  44.6 1004.3 26.9  1.022 -99.9 -99.99 -9.99
2019/11/18 22:48 EST    2.51   4.36   10    1   13  40.8  44.6 1004.3 26.8  1.022 -99.9 -99.99 -9.99
2019/11/18 22:54 EST    2.60   4.44    7    4   12  41.0  44.6 1004.5 26.9  1.022 -99.9 -99.99 -9.99
2019/11/18 23:00 EST    2.69   4.54    9  360   12  41.0  44.6 1004.7 26.9  1.022 -99.9 -99.99 -9.99
2019/11/18 23:06 EST    2.78   4.66    7  358   10  41.0  44.6 1005.0 26.9  1.022 -99.9 -99.99 -9.99
2019/11/18 23:12 EST    2.86   4.76    7  350   10  41.0  44.6 1005.1 26.9  1.022 -99.9 -99.99 -9.99
2019/11/18 23:18 EST    2.94   4.82    6  346    9  41.0  44.4 1005.2 26.9  1.022 -99.9 -99.99 -9.99
2019/11/18 23:24 EST    3.01   4.89    6  338    7  41.0  44.6 1005.3 26.9  1.022 -99.9 -99.99 -9.99
2019/11/18 23:30 EST    3.09   4.98    6  334    7  41.0  44.4 1005.4 26.9  1.022 -99.9 -99.99 -9.99
2019/11/18 23:36 EST    3.15   5.07    4  335    6  41.2  44.6 1005.4 26.9  1.022 -99.9 -99.99 -9.99
2019/11/18 23:42 EST    3.22   5.11    7  340    9  41.0  44.6 1005.4 26.9  1.022 -99.9 -99.99 -9.99
2019/11/18 23:48 EST    3.27   5.14    7  351   10  41.0  44.6 1005.4 26.9  1.022 -99.9 -99.99 -9.99
2019/11/18 23:54 EST    3.32   5.17    8  360   11  41.2  44.8 1005.4 26.9  1.022 -99.9 -99.99 -9.99
2019/11/19 00:00 EST    3.37   5.21    5  356    7  41.2  44.8 1005.5 26.9  1.022 -99.9 -99.99 -9.99
2019/11/19 00:06 EST    3.41   5.25    5  342    7  41.0  44.6 1005.5 26.9  1.022 -99.9 -99.99 -9.99
2019/11/19 00:12 EST    3.44   5.23    4  316    6  41.0  44.6 1005.6 26.9  1.022 -99.9 -99.99 -9.99
2019/11/19 00:18 EST    3.46   5.24    5  328    7  41.0  44.6 1005.5 27.0  1.022 -99.9 -99.99 -9.99
2019/11/19 00:24 EST    3.48   5.20    5  322    7  41.0  44.6 1005.5 27.0  1.022 -99.9 -99.99 -9.99
2019/11/19 00:30 EST    3.49   5.22    4  312    6  41.0  44.8 1005.6 26.9  1.022 -99.9 -99.99 -9.99
2019/11/19 00:36 EST    3.49   5.20    3  305    5  41.2  44.8 1005.5 26.9  1.022 -99.9 -99.99 -9.99
2019/11/19 00:42 EST    3.49   5.19    4  314    6  41.2  44.8 1005.5 26.9  1.022 -99.9 -99.99 -9.99
2019/11/19 00:48 EST    3.48   5.14    4  314    6  41.2  44.8 1005.5 26.9  1.022 -99.9 -99.99 -9.99
2019/11/19 00:54 EST    3.46   5.13    3  304    5  41.0  44.8 1005.7 26.9  1.022 -99.9 -99.99 -9.99
2019/11/19 01:00 EST    3.43   5.08    3  305    5  41.0  44.8 1005.8 26.9  1.022 -99.9 -99.99 -9.99
2019/11/19 01:06 EST    3.40   5.01    3  311    5  41.2  44.8 1005.8 26.9  1.022 -99.9 -99.99 -9.99
2019/11/19 01:12 EST    3.36   4.94    3  326    5  41.2  44.6 1005.8 26.9  1.022 -99.9 -99.99 -9.99
2019/11/19 01:18 EST    3.32   4.89    3  314    5  41.2  44.6 1005.8 26.9  1.022 -99.9 -99.99 -9.99
2019/11/19 01:24 EST    3.26   4.79    3  317    4  41.2  44.6 1005.9 26.8  1.022 -99.9 -99.99 -9.99
2019/11/19 01:30 EST    3.21   4.70    2  306    3  41.2  44.6 1005.9 26.8  1.022 -99.9 -99.99 -9.99
2019/11/19 01:36 EST    3.14   4.63    2  301    4  41.0  44.6 1006.0 26.8  1.022 -99.9 -99.99 -9.99
2019/11/19 01:42 EST    3.07   4.59    2  297    4  41.2  44.6 1006.0 26.8  1.022 -99.9 -99.99 -9.99
2019/11/19 01:48 EST    3.00   4.51    3  295    4  41.2  44.6 1006.0 26.8  1.022 -99.9 -99.99 -9.99
2019/11/19 01:54 EST    2.92   4.42    3  309    4  41.2  44.6 1006.1 26.8  1.022 -99.9 -99.99 -9.99
2019/11/19 02:00 EST    2.84   4.33    3  305    4  41.2  44.6 1006.1 26.8  1.022 -99.9 -99.99 -9.99
2019/11/19 02:06 EST    2.75   4.24    4  313    6  41.0  44.6 1006.1 26.9  1.022 -99.9 -99.99 -9.99
2019/11/19 02:12 EST    2.66   4.15    3  314    4  41.0  45.0 1006.1 26.7  1.022 -99.9 -99.99 -9.99
2019/11/19 02:18 EST    2.56   4.07    3  317    4  40.8  45.1 1006.0 26.8  1.022 -99.9 -99.99 -9.99
2019/11/19 02:24 EST    2.47   3.99    2  296    3  40.8  45.1 1006.0 26.9  1.022 -99.9 -99.99 -9.99
2019/11/19 02:30 EST    2.37   3.86    2  288    3  40.6  45.3 1006.1 26.9  1.022 -99.9 -99.99 -9.99
2019/11/19 02:36 EST    2.27   3.73    2  279    4  40.6  45.3 1006.1 26.9  1.022 -99.9 -99.99 -9.99
2019/11/19 02:42 EST    2.17   3.62    1  301    3  40.6  45.1 1006.1 27.0  1.022 -99.9 -99.99 -9.99
2019/11/19 02:48 EST    2.06   3.55    2  282    3  40.5  45.7 1006.1 26.8  1.022 -99.9 -99.99 -9.99
2019/11/19 02:54 EST    1.96   3.47    2  282    3  40.5  45.9 1006.2 26.9  1.022 -99.9 -99.99 -9.99
2019/11/19 03:00 EST    1.86   3.37    2  280    4  40.5  45.9 1006.3 26.9  1.022 -99.9 -99.99 -9.99
2019/11/19 03:06 EST    1.76   3.27    2  276    4  40.5  46.0 1006.4 26.9  1.022 -99.9 -99.99 -9.99
2019/11/19 03:12 EST    1.66   3.18    3  277    4  40.6  46.0 1006.4 27.0  1.022 -99.9 -99.99 -9.99
2019/11/19 03:18 EST    1.56   3.11    2  275    4  40.6  45.7 1006.4 27.1  1.022 -99.9 -99.99 -9.99
2019/11/19 03:24 EST    1.46   3.03    2  315    4  40.6  45.9 1006.2 27.0  1.022 -99.9 -99.99 -9.99
2019/11/19 03:30 EST    1.36   2.96    2  290    2  40.5  45.5 1006.2 27.2  1.022 -99.9 -99.99 -9.99
2019/11/19 03:36 EST    1.27   2.87    1  274    2  40.5  45.0 1006.3 27.3  1.022 -99.9 -99.99 -9.99
2019/11/19 03:42 EST    1.18   2.79    1  298    2  40.5  45.1 1006.3 27.1  1.022 -99.9 -99.99 -9.99
2019/11/19 03:48 EST    1.09   2.68    0  331    1  40.5  45.1 1006.3 27.0  1.022 -99.9 -99.99 -9.99
2019/11/19 03:54 EST    1.01   2.63    0  330    1  40.5  46.0 1006.3 26.8  1.022 -99.9 -99.99 -9.99
2019/11/19 04:00 EST    0.93   2.58    1  357    1  40.5  46.2 1006.3 26.9  1.022 -99.9 -99.99 -9.99
2019/11/19 04:06 EST    0.85   2.49    1  349    1  40.5  45.3 1006.4 27.1  1.022 -99.9 -99.99 -9.99
2019/11/19 04:12 EST    0.78   2.41    0  342    1  40.5  44.8 1006.5 27.1  1.022 -99.9 -99.99 -9.99
2019/11/19 04:18 EST    0.71   2.33    0  314    1  40.3  44.8 1006.5 27.1  1.022 -99.9 -99.99 -9.99
2019/11/19 04:24 EST    0.65   2.29    1   15    1  40.5  44.8 1006.4 27.0  1.022 -99.9 -99.99 -9.99
2019/11/19 04:30 EST    0.59   2.21    1   19    2  40.5  44.6 1006.5 27.1  1.022 -99.9 -99.99 -9.99
2019/11/19 04:36 EST    0.54   2.17    1   20    1  40.5  44.8 1006.6 27.0  1.022 -99.9 -99.99 -9.99
2019/11/19 04:42 EST    0.49   2.13    2    9    2  40.5  44.8 1006.5 27.0  1.022 -99.9 -99.99 -9.99
2019/11/19 04:48 EST    0.45   2.07    2   11    2  40.5  44.6 1006.5 27.1  1.022 -99.9 -99.99 -9.99
2019/11/19 04:54 EST    0.42   2.02    2    9    3  40.6  44.8 1006.6 27.0  1.022 -99.9 -99.99 -9.99
2019/11/19 05:00 EST    0.39   2.01    2   27    3  40.6  44.8 1006.6 27.0  1.022 -99.9 -99.99 -9.99
2019/11/19 05:06 EST    0.36   1.97    2   34    3  40.6  44.6 1006.7 27.0  1.022 -99.9 -99.99 -9.99
2019/11/19 05:12 EST    0.34   1.94    2   18    2  40.6  44.8 1006.6 26.9  1.022 -99.9 -99.99 -9.99
2019/11/19 05:18 EST    0.32   1.95    2   33    3  40.6  44.4 1006.6 27.0  1.022 -99.9 -99.99 -9.99
2019/11/19 05:24 EST    0.31   1.97    3   28    3  40.6  44.4 1006.7 26.9  1.022 -99.9 -99.99 -9.99
2019/11/19 05:30 EST    0.31   1.94    2   35    3  40.6  44.4 1006.7 26.9  1.022 -99.9 -99.99 -9.99
2019/11/19 05:36 EST    0.31   1.91    2   21    3  40.6  44.4 1006.8 26.9  1.022 -99.9 -99.99 -9.99
2019/11/19 05:42 EST    0.31   1.88    2    6    3  40.6  44.4 1006.8 26.9  1.022 -99.9 -99.99 -9.99
2019/11/19 05:48 EST    0.32   1.89    1   20    3  40.8  44.4 1006.9 26.9  1.022 -99.9 -99.99 -9.99
2019/11/19 05:54 EST    0.33   1.87    2   38    3  40.6  44.6 1007.0 26.8  1.022 -99.9 -99.99 -9.99
2019/11/19 06:00 EST    0.35   1.89    2   57    3  40.8  44.6 1007.0 26.8  1.022 -99.9 -99.99 -9.99
2019/11/19 06:06 EST    0.37   1.90    3   67    3  40.8  44.6 1007.1 26.8  1.022 -99.9 -99.99 -9.99
2019/11/19 06:12 EST    0.39   1.90    3   85    3  40.8  44.6 1007.2 26.8  1.022 -99.9 -99.99 -9.99
2019/11/19 06:18 EST    0.42   1.90    2   98    3  40.8  44.6 1007.3 26.8  1.022 -99.9 -99.99 -9.99
2019/11/19 06:24 EST    0.44   1.92    2   95    2  41.0  44.8 1007.3 26.8  1.022 -99.9 -99.99 -9.99
2019/11/19 06:30 EST    0.47   1.97    1  101    2  41.2  44.8 1007.4 26.8  1.022 -99.9 -99.99 -9.99
2019/11/19 06:36 EST    0.51   1.98    2  104    2  41.0  44.8 1007.5 26.8  1.022 -99.9 -99.99 -9.99
2019/11/19 06:42 EST    0.54   2.01    2   93    3  41.0  44.6 1007.6 26.7  1.022 -99.9 -99.99 -9.99
2019/11/19 06:48 EST    0.58   2.02    2   92    2  41.0  44.8 1007.7 26.7  1.022 -99.9 -99.99 -9.99
2019/11/19 06:54 EST    0.61   2.04    2  109    3  41.0  44.8 1007.7 26.7  1.022 -99.9 -99.99 -9.99
2019/11/19 07:00 EST    0.65   2.05    1  111    2  41.2  44.6 1007.7 26.8  1.022 -99.9 -99.99 -9.99
2019/11/19 07:06 EST    0.69   2.08    2  106    2  41.2  44.6 1007.7 26.7  1.022 -99.9 -99.99 -9.99
2019/11/19 07:12 EST    0.73   2.10    1  103    2  41.2  44.6 1007.6 26.8  1.022 -99.9 -99.99 -9.99
2019/11/19 07:18 EST    0.76   2.13    2   85    2  41.2  44.6 1007.5 26.8  1.022 -99.9 -99.99 -9.99
2019/11/19 07:24 EST    0.80   2.15    1  104    2  41.2  44.6 1007.6 26.7  1.022 -99.9 -99.99 -9.99
2019/11/19 07:30 EST    0.84   2.16    1  137    1  41.2  44.6 1007.7 26.7  1.022 -99.9 -99.99 -9.99
2019/11/19 07:36 EST    0.88   2.20    1  163    1  41.2  44.6 1007.7 26.7  1.022 -99.9 -99.99 -9.99
2019/11/19 07:42 EST    0.92   2.22    0  170    1  41.2  44.6 1007.7 26.7  1.022 -99.9 -99.99 -9.99
2019/11/19 07:48 EST    0.96   2.26    0  170    0  41.4  44.6 1007.7 26.7  1.022 -99.9 -99.99 -9.99
2019/11/19 07:54 EST    0.99   2.28    0  133    1  41.4  44.6 1007.7 26.7  1.022 -99.9 -99.99 -9.99
2019/11/19 08:00 EST    1.03   2.31    1   87    2  41.4  44.6 1007.7 26.7  1.022 -99.9 -99.99 -9.99
2019/11/19 08:06 EST    1.07   2.35    0  179    0  41.5  44.6 1007.7 26.7  1.022 -99.9 -99.99 -9.99
2019/11/19 08:12 EST    1.11   2.40    0  206    0  41.5  44.6 1007.7 26.7  1.022 -99.9 -99.99 -9.99
2019/11/19 08:18 EST    1.14   2.44    0  202    1  41.5  44.6 1007.7 26.7  1.022 -99.9 -99.99 -9.99
2019/11/19 08:24 EST    1.18   2.48    2  151    3  41.5  44.6 1007.7 26.7  1.022 -99.9 -99.99 -9.99
2019/11/19 08:30 EST    1.22   2.53    2  136    3  41.5  44.6 1007.6 26.7  1.022 -99.9 -99.99 -9.99
2019/11/19 08:36 EST    1.26   2.57    1  112    2  41.5  44.6 1007.6 26.7  1.022 -99.9 -99.99 -9.99
2019/11/19 08:42 EST    1.30   2.64    1   47    1  41.7  44.6 1007.7 26.7  1.022 -99.9 -99.99 -9.99
2019/11/19 08:48 EST    1.34   2.70    0  338    1  41.7  44.6 1007.8 26.7  1.022 -99.9 -99.99 -9.99
2019/11/19 08:54 EST    1.38   2.73    0   47    0  41.7  44.6 1007.7 26.6  1.022 -99.9 -99.99 -9.99
2019/11/19 09:00 EST    1.43   2.76    0   47    1  41.7  44.6 1007.7 26.7  1.022 -99.9 -99.99 -9.99
2019/11/19 09:06 EST    1.47   2.82    0   30    1  41.9  44.6 1007.8 26.7  1.022 -99.9 -99.99 -9.99
2019/11/19 09:12 EST    1.52   2.89    1  266    2  41.9  44.6 1007.8 26.7  1.022 -99.9 -99.99 -9.99
2019/11/19 09:18 EST    1.57   2.97    1  271    3  41.9  44.6 1007.8 26.6  1.022 -99.9 -99.99 -9.99
2019/11/19 09:24 EST    1.62   3.01    2  243    3  41.9  44.6 1007.9 26.6  1.022 -99.9 -99.99 -9.99
2019/11/19 09:30 EST    1.68   3.07    1  227    3  41.9  44.6 1007.8 26.6  1.022 -99.9 -99.99 -9.99
2019/11/19 09:36 EST    1.74   3.12    3  247    4  41.7  44.6 1007.9 26.5  1.022 -99.9 -99.99 -9.99
2019/11/19 09:42 EST    1.80   3.21    3  246    4  41.9  44.6 1007.9 26.4  1.022 -99.9 -99.99 -9.99
2019/11/19 09:48 EST    1.86   3.28    2  207    3  41.9  44.4 1007.9 26.4  1.022 -99.9 -99.99 -9.99
2019/11/19 09:54 EST    1.93   3.33    2  210    3  41.9  44.4 1007.9 26.4  1.022 -99.9 -99.99 -9.99
2019/11/19 10:00 EST    1.99   3.39    2  216    3  42.1  44.4 1007.9 26.4  1.022 -99.9 -99.99 -9.99
2019/11/19 10:06 EST    2.06   3.47    2  204    3  42.3  44.4 1007.8 26.4  1.022 -99.9 -99.99 -9.99
2019/11/19 10:12 EST    2.14   3.54    3  229    3  42.3  44.6 1007.9 26.3  1.022 -99.9 -99.99 -9.99
2019/11/19 10:18 EST    2.21   3.63    2  248    3  42.6  44.6 1008.0 26.3  1.022 -99.9 -99.99 -9.99
2019/11/19 10:24 EST    2.29   3.70    1  256    3  42.6  44.6 1007.9 26.4  1.022 -99.9 -99.99 -9.99
2019/11/19 10:30 EST    2.37   3.74    2  207    3  42.6  44.6 1007.9 26.4  1.022 -99.9 -99.99 -9.99
2019/11/19 10:36 EST    2.45   3.83    2  162    3  42.6  44.6 1007.8 26.4  1.022 -99.9 -99.99 -9.99
2019/11/19 10:42 EST    2.53   3.91    2  125    3  43.0  44.8 1007.7 26.3  1.022 -99.9 -99.99 -9.99
2019/11/19 10:48 EST    2.62   4.00    1  132    2  43.3  44.8 1007.7 26.4  1.022 -99.9 -99.99 -9.99
2019/11/19 10:54 EST    2.70   4.08    2  139    2  43.5  44.8 1007.7 26.4  1.022 -99.9 -99.99 -9.99
2019/11/19 11:00 EST    2.79   4.17    1  128    2  43.7  44.8 1007.7 26.4  1.022 -99.9 -99.99 -9.99
2019/11/19 11:06 EST    2.87   4.21    2  132    2  43.5  44.8 1007.7 26.4  1.022 -99.9 -99.99 -9.99
2019/11/19 11:12 EST    2.95   4.29    2  161    3  43.5  44.8 1007.6 26.4  1.022 -99.9 -99.99 -9.99
2019/11/19 11:18 EST    3.03   4.36    2  184    3  43.9  44.8 1007.6 26.4  1.022 -99.9 -99.99 -9.99
2019/11/19 11:24 EST    3.11   4.44    3  222    3  44.2  44.8 1007.6 26.4  1.022 -99.9 -99.99 -9.99
2019/11/19 11:30 EST    3.19   4.50    6  223    8  44.6  44.8 1007.5 26.4  1.022 -99.9 -99.99 -9.99
2019/11/19 11:36 EST    3.27   4.55    8  236    9  45.1  44.8 1007.5 26.4  1.022 -99.9 -99.99 -9.99
2019/11/19 11:42 EST    3.34   4.60    5  248    8  45.7  45.0 1007.5 26.4  1.022 -99.9 -99.99 -9.99
2019/11/19 11:48 EST    3.41   4.65    3  267    9  46.0  45.0 1007.6 26.4  1.022 -99.9 -99.99 -9.99
2019/11/19 11:54 EST    3.47   4.69    4  245    6  46.2  44.8 1007.6 26.5  1.022 -99.9 -99.99 -9.99
2019/11/19 12:00 EST    3.53   4.72    2  269    7  46.6  44.8 1007.6 26.5  1.022 -99.9 -99.99 -9.99
2019/11/19 12:06 EST    3.58   4.76    3  285    4  46.8  44.6 1007.5 26.5  1.022 -99.9 -99.99 -9.99
2019/11/19 12:12 EST    3.63   4.80    3  297    4  46.9  44.6 1007.4 26.5  1.022 -99.9 -99.99 -9.99
2019/11/19 12:18 EST    3.68   4.83    3  296    6  47.3  44.6 1007.4 26.6  1.022 -99.9 -99.99 -9.99
2019/11/19 12:24 EST    3.72   4.84    3  282    4  47.3  44.6 1007.4 26.6  1.022 -99.9 -99.99 -9.99
2019/11/19 12:30 EST    3.75   4.87    3  280    4  47.5  44.6 1007.4 26.6  1.022 -99.9 -99.99 -9.99
2019/11/19 12:36 EST    3.77   4.86    3  277    6  47.5  44.6 1007.4 26.6  1.022 -99.9 -99.99 -9.99
2019/11/19 12:42 EST    3.79   4.85    2  268    4  47.3  44.6 1007.4 26.6  1.022 -99.9 -99.99 -9.99
2019/11/19 12:48 EST    3.81   4.84    1  263    3  47.5  44.6 1007.5 26.6  1.022 -99.9 -99.99 -9.99
2019/11/19 12:54 EST    3.81   4.84    2  286    3  47.3  44.6 1007.4 26.6  1.022 -99.9 -99.99 -9.99
2019/11/19 13:00 EST    3.81   4.82    1  236    2  47.3  44.6 1007.5 26.6  1.022 -99.9 -99.99 -9.99
2019/11/19 13:06 EST    3.80   4.80    2  171    4  46.8  44.8 1007.6 26.5  1.022 -99.9 -99.99 -9.99
2019/11/19 13:12 EST    3.79 -99.99 -999 -999 -999 -99.9 -99.9 -999.9 -9.9 -9.999 -99.9 -99.99 -9.99
2019/11/19 13:18 EST    3.77 -99.99 -999 -999 -999 -99.9 -99.9 -999.9 -9.9 -9.999 -99.9 -99.99 -9.99
2019/11/19 13:24 EST    3.74 -99.99 -999 -999 -999 -99.9 -99.9 -999.9 -9.9 -9.999 -99.9 -99.99 -9.99